<?xml version="1.0" encoding="UTF-8"?>
<gpx version="1.1" creator="https://www.youtrack.es" xsi:schemaLocation="http://www.topografix.com/GPX/1/1 http://www.topografix.com/GPX/1/1/gpx.xsd http://www.garmin.com/xmlschemas/GpxExtensions/v3 http://www.garmin.com/xmlschemas/GpxExtensionsv3.xsd http://www.garmin.com/xmlschemas/TrackPointExtension/v1 http://www.garmin.com/xmlschemas/TrackPointExtensionv1.xsd" xmlns:gpxtpx="http://www.garmin.com/xmlschemas/TrackPointExtension/v1" xmlns:gpxx="http://www.garmin.com/xmlschemas/GpxExtensions/v3" xmlns:xsi="http://www.w3.org/2001/XMLSchema-instance">
  <metadata>
    <link href="https://www.youtrack.es">
      <text>YouTrack.es</text>
    </link>
    <time>2026-05-08T04:35:41Z</time>
  </metadata>
  <trk>
    <src>https://www.youtrack.es</src>
    <link href="https://www.youtrack.es/ruta/15332-eric-jones">
      <text>YouTrack.es</text>
    </link>
    <trkseg>
      <trkpt lat="40.20495999999999" lon="-6.71598999999996">
        <ele>522.8572998046875</ele>
        <time>2020-08-23T09:37:08.000Z</time>
      </trkpt>
      <trkpt lat="40.20519" lon="-6.71588">
        <ele>523.0133056640625</ele>
        <time>2020-08-23T09:37:08.008Z</time>
      </trkpt>
      <trkpt lat="40.205560000000006" lon="-6.71567">
        <ele>523.1305541992188</ele>
        <time>2020-08-23T09:37:08.030Z</time>
      </trkpt>
      <trkpt lat="40.2058" lon="-6.71555">
        <ele>523.4185180664062</ele>
        <time>2020-08-23T09:37:08.060Z</time>
      </trkpt>
      <trkpt lat="40.20613" lon="-6.7154300000000005">
        <ele>523.814453125</ele>
        <time>2020-08-23T09:37:08.102Z</time>
      </trkpt>
      <trkpt lat="40.20626" lon="-6.71541">
        <ele>523.9703979492188</ele>
        <time>2020-08-23T09:37:08.148Z</time>
      </trkpt>
      <trkpt lat="40.206500000000005" lon="-6.71541">
        <ele>522.966552734375</ele>
        <time>2020-08-23T09:37:08.202Z</time>
      </trkpt>
      <trkpt lat="40.20669" lon="-6.7154300000000005">
        <ele>522.2144775390625</ele>
        <time>2020-08-23T09:37:08.262Z</time>
      </trkpt>
      <trkpt lat="40.20689" lon="-6.7155000000000005">
        <ele>521.5785522460938</ele>
        <time>2020-08-23T09:37:08.329Z</time>
      </trkpt>
      <trkpt lat="40.207300000000004" lon="-6.71581">
        <ele>520.5557861328125</ele>
        <time>2020-08-23T09:37:08.412Z</time>
      </trkpt>
      <trkpt lat="40.207440000000005" lon="-6.71588">
        <ele>520.1358642578125</ele>
        <time>2020-08-23T09:37:08.500Z</time>
      </trkpt>
      <trkpt lat="40.20765" lon="-6.71593">
        <ele>519.176025390625</ele>
        <time>2020-08-23T09:37:08.595Z</time>
      </trkpt>
      <trkpt lat="40.208420000000004" lon="-6.7159">
        <ele>516.3001098632812</ele>
        <time>2020-08-23T09:37:08.716Z</time>
      </trkpt>
      <trkpt lat="40.20902" lon="-6.71579">
        <ele>513.0833129882812</ele>
        <time>2020-08-23T09:37:08.857Z</time>
      </trkpt>
      <trkpt lat="40.20911" lon="-6.7158500000000005">
        <ele>512.7953491210938</ele>
        <time>2020-08-23T09:37:09.001Z</time>
      </trkpt>
      <trkpt lat="40.20917" lon="-6.7159200000000014">
        <ele>512.6753540039062</ele>
        <time>2020-08-23T09:37:09.148Z</time>
      </trkpt>
      <trkpt lat="40.209320000000005" lon="-6.716190000000001">
        <ele>511.922119140625</ele>
        <time>2020-08-23T09:37:09.303Z</time>
      </trkpt>
      <trkpt lat="40.20956" lon="-6.715960000000001">
        <ele>510.1824035644531</ele>
        <time>2020-08-23T09:37:09.468Z</time>
      </trkpt>
      <trkpt lat="40.20996" lon="-6.715660000000001">
        <ele>506.1611633300781</ele>
        <time>2020-08-23T09:37:09.649Z</time>
      </trkpt>
      <trkpt lat="40.210440000000006" lon="-6.715630000000001">
        <ele>500.8700256347656</ele>
        <time>2020-08-23T09:37:09.846Z</time>
      </trkpt>
      <trkpt lat="40.21076" lon="-6.715700000000001">
        <ele>499.8810119628906</ele>
        <time>2020-08-23T09:37:10.054Z</time>
      </trkpt>
      <trkpt lat="40.21132" lon="-6.71565">
        <ele>497.3356018066406</ele>
        <time>2020-08-23T09:37:10.280Z</time>
      </trkpt>
      <trkpt lat="40.211740000000006" lon="-6.715490000000001">
        <ele>491.8193054199219</ele>
        <time>2020-08-23T09:37:10.521Z</time>
      </trkpt>
      <trkpt lat="40.21193" lon="-6.715560000000001">
        <ele>490.1875915527344</ele>
        <time>2020-08-23T09:37:10.768Z</time>
      </trkpt>
      <trkpt lat="40.21211" lon="-6.715490000000001">
        <ele>487.823974609375</ele>
        <time>2020-08-23T09:37:11.022Z</time>
      </trkpt>
      <trkpt lat="40.21222" lon="-6.71553">
        <ele>487.72467041015625</ele>
        <time>2020-08-23T09:37:11.280Z</time>
      </trkpt>
      <trkpt lat="40.212270000000004" lon="-6.715700000000001">
        <ele>488.981689453125</ele>
        <time>2020-08-23T09:37:11.542Z</time>
      </trkpt>
      <trkpt lat="40.212430000000005" lon="-6.71572">
        <ele>489.19244384765625</ele>
        <time>2020-08-23T09:37:11.810Z</time>
      </trkpt>
      <trkpt lat="40.212650000000004" lon="-6.71548">
        <ele>487.1340026855469</ele>
        <time>2020-08-23T09:37:12.087Z</time>
      </trkpt>
      <trkpt lat="40.21304000000001" lon="-6.715380000000001">
        <ele>486.08404541015625</ele>
        <time>2020-08-23T09:37:12.377Z</time>
      </trkpt>
      <trkpt lat="40.21316" lon="-6.71548">
        <ele>486.6359558105469</ele>
        <time>2020-08-23T09:37:12.672Z</time>
      </trkpt>
      <trkpt lat="40.21322" lon="-6.71536">
        <ele>485.484130859375</ele>
        <time>2020-08-23T09:37:12.971Z</time>
      </trkpt>
      <trkpt lat="40.21351000000001" lon="-6.7151000000000005">
        <ele>482.6046142578125</ele>
        <time>2020-08-23T09:37:13.281Z</time>
      </trkpt>
      <trkpt lat="40.213640000000005" lon="-6.71494">
        <ele>480.9488830566406</ele>
        <time>2020-08-23T09:37:13.597Z</time>
      </trkpt>
      <trkpt lat="40.21383" lon="-6.71485">
        <ele>479.963134765625</ele>
        <time>2020-08-23T09:37:13.920Z</time>
      </trkpt>
      <trkpt lat="40.21392" lon="-6.71475">
        <ele>479.5911865234375</ele>
        <time>2020-08-23T09:37:14.247Z</time>
      </trkpt>
      <trkpt lat="40.214020000000005" lon="-6.71445">
        <ele>478.492919921875</ele>
        <time>2020-08-23T09:37:14.582Z</time>
      </trkpt>
      <trkpt lat="40.21398000000001" lon="-6.71433">
        <ele>478.06097412109375</ele>
        <time>2020-08-23T09:37:14.921Z</time>
      </trkpt>
      <trkpt lat="40.214020000000005" lon="-6.7140200000000005">
        <ele>476.7989501953125</ele>
        <time>2020-08-23T09:37:15.268Z</time>
      </trkpt>
      <trkpt lat="40.214130000000004" lon="-6.71379">
        <ele>473.7634582519531</ele>
        <time>2020-08-23T09:37:15.622Z</time>
      </trkpt>
      <trkpt lat="40.214220000000005" lon="-6.7136700000000005">
        <ele>472.1797180175781</ele>
        <time>2020-08-23T09:37:15.980Z</time>
      </trkpt>
      <trkpt lat="40.2145" lon="-6.71339">
        <ele>468.48431396484375</ele>
        <time>2020-08-23T09:37:16.350Z</time>
      </trkpt>
      <trkpt lat="40.214620000000004" lon="-6.71335">
        <ele>467.9571533203125</ele>
        <time>2020-08-23T09:37:16.724Z</time>
      </trkpt>
      <trkpt lat="40.21468" lon="-6.7133400000000005">
        <ele>467.89715576171875</ele>
        <time>2020-08-23T09:37:17.100Z</time>
      </trkpt>
      <trkpt lat="40.21477" lon="-6.713260000000001">
        <ele>466.9493103027344</ele>
        <time>2020-08-23T09:37:17.480Z</time>
      </trkpt>
      <trkpt lat="40.214920000000006" lon="-6.712940000000001">
        <ele>467.9309997558594</ele>
        <time>2020-08-23T09:37:17.869Z</time>
      </trkpt>
      <trkpt lat="40.21499" lon="-6.71274">
        <ele>468.5586242675781</ele>
        <time>2020-08-23T09:37:18.264Z</time>
      </trkpt>
      <trkpt lat="40.215070000000004" lon="-6.71248">
        <ele>468.9185791015625</ele>
        <time>2020-08-23T09:37:18.666Z</time>
      </trkpt>
      <trkpt lat="40.21508" lon="-6.71236">
        <ele>468.9381408691406</ele>
        <time>2020-08-23T09:37:19.071Z</time>
      </trkpt>
      <trkpt lat="40.215500000000006" lon="-6.7123800000000005">
        <ele>471.986328125</ele>
        <time>2020-08-23T09:37:19.490Z</time>
      </trkpt>
      <trkpt lat="40.215500000000006" lon="-6.712390000000001">
        <ele>471.92633056640625</ele>
        <time>2020-08-23T09:37:19.909Z</time>
      </trkpt>
      <trkpt lat="40.2158" lon="-6.71264">
        <ele>470.7864990234375</ele>
        <time>2020-08-23T09:37:20.340Z</time>
      </trkpt>
      <trkpt lat="40.21587" lon="-6.71276">
        <ele>470.150634765625</ele>
        <time>2020-08-23T09:37:20.775Z</time>
      </trkpt>
      <trkpt lat="40.215920000000004" lon="-6.71302">
        <ele>469.6780700683594</ele>
        <time>2020-08-23T09:37:21.217Z</time>
      </trkpt>
      <trkpt lat="40.216100000000004" lon="-6.71323">
        <ele>470.2413024902344</ele>
        <time>2020-08-23T09:37:21.667Z</time>
      </trkpt>
      <trkpt lat="40.21623" lon="-6.7133400000000005">
        <ele>470.803466796875</ele>
        <time>2020-08-23T09:37:22.122Z</time>
      </trkpt>
      <trkpt lat="40.21632" lon="-6.71337">
        <ele>471.0810852050781</ele>
        <time>2020-08-23T09:37:22.580Z</time>
      </trkpt>
      <trkpt lat="40.21658" lon="-6.7134100000000005">
        <ele>474.72845458984375</ele>
        <time>2020-08-23T09:37:23.047Z</time>
      </trkpt>
      <trkpt lat="40.21698000000001" lon="-6.71365">
        <ele>478.4313659667969</ele>
        <time>2020-08-23T09:37:23.528Z</time>
      </trkpt>
      <trkpt lat="40.21712" lon="-6.7136700000000005">
        <ele>479.6321105957031</ele>
        <time>2020-08-23T09:37:24.014Z</time>
      </trkpt>
      <trkpt lat="40.21719" lon="-6.713620000000001">
        <ele>480.9998779296875</ele>
        <time>2020-08-23T09:37:24.503Z</time>
      </trkpt>
      <trkpt lat="40.21726" lon="-6.71332">
        <ele>484.1673583984375</ele>
        <time>2020-08-23T09:37:25.000Z</time>
      </trkpt>
      <trkpt lat="40.21759" lon="-6.71304">
        <ele>488.2170715332031</ele>
        <time>2020-08-23T09:37:25.510Z</time>
      </trkpt>
      <trkpt lat="40.21784" lon="-6.71304">
        <ele>491.81646728515625</ele>
        <time>2020-08-23T09:37:26.028Z</time>
      </trkpt>
      <trkpt lat="40.21802" lon="-6.7129">
        <ele>492.6639709472656</ele>
        <time>2020-08-23T09:37:26.553Z</time>
      </trkpt>
      <trkpt lat="40.21837" lon="-6.712940000000001">
        <ele>495.9874267578125</ele>
        <time>2020-08-23T09:37:27.090Z</time>
      </trkpt>
      <trkpt lat="40.2188" lon="-6.71304">
        <ele>500.5904541015625</ele>
        <time>2020-08-23T09:37:27.641Z</time>
      </trkpt>
      <trkpt lat="40.21916" lon="-6.71325">
        <ele>506.3046875</ele>
        <time>2020-08-23T09:37:28.206Z</time>
      </trkpt>
      <trkpt lat="40.2196" lon="-6.7139500000000005">
        <ele>508.19073486328125</ele>
        <time>2020-08-23T09:37:28.794Z</time>
      </trkpt>
      <trkpt lat="40.21985" lon="-6.7142100000000005">
        <ele>507.3359680175781</ele>
        <time>2020-08-23T09:37:29.392Z</time>
      </trkpt>
      <trkpt lat="40.220000000000006" lon="-6.71447">
        <ele>504.2764892578125</ele>
        <time>2020-08-23T09:37:29.999Z</time>
      </trkpt>
      <trkpt lat="40.22019" lon="-6.71468">
        <ele>501.63433837890625</ele>
        <time>2020-08-23T09:37:30.614Z</time>
      </trkpt>
      <trkpt lat="40.22079" lon="-6.7149600000000005">
        <ele>504.1156005859375</ele>
        <time>2020-08-23T09:37:31.250Z</time>
      </trkpt>
      <trkpt lat="40.22111" lon="-6.71506">
        <ele>507.8787841796875</ele>
        <time>2020-08-23T09:37:31.897Z</time>
      </trkpt>
      <trkpt lat="40.22131" lon="-6.71499">
        <ele>513.2023315429688</ele>
        <time>2020-08-23T09:37:32.551Z</time>
      </trkpt>
      <trkpt lat="40.22135" lon="-6.7150300000000005">
        <ele>513.8742065429688</ele>
        <time>2020-08-23T09:37:33.207Z</time>
      </trkpt>
      <trkpt lat="40.22137" lon="-6.7152">
        <ele>512.4104614257812</ele>
        <time>2020-08-23T09:37:33.867Z</time>
      </trkpt>
      <trkpt lat="40.22135" lon="-6.7153100000000014">
        <ele>510.5147705078125</ele>
        <time>2020-08-23T09:37:34.530Z</time>
      </trkpt>
      <trkpt lat="40.22137" lon="-6.7155700000000005">
        <ele>507.9712219238281</ele>
        <time>2020-08-23T09:37:35.200Z</time>
      </trkpt>
      <trkpt lat="40.2216" lon="-6.71588">
        <ele>506.80523681640625</ele>
        <time>2020-08-23T09:37:35.881Z</time>
      </trkpt>
      <trkpt lat="40.221720000000005" lon="-6.71595">
        <ele>507.84906005859375</ele>
        <time>2020-08-23T09:37:36.566Z</time>
      </trkpt>
      <trkpt lat="40.221830000000004" lon="-6.71607">
        <ele>507.6158447265625</ele>
        <time>2020-08-23T09:37:37.256Z</time>
      </trkpt>
      <trkpt lat="40.22196" lon="-6.71616">
        <ele>507.96380615234375</ele>
        <time>2020-08-23T09:37:37.951Z</time>
      </trkpt>
      <trkpt lat="40.22209" lon="-6.7163200000000005">
        <ele>506.88397216796875</ele>
        <time>2020-08-23T09:37:38.652Z</time>
      </trkpt>
      <trkpt lat="40.222210000000004" lon="-6.7163900000000005">
        <ele>507.0429992675781</ele>
        <time>2020-08-23T09:37:39.357Z</time>
      </trkpt>
      <trkpt lat="40.222280000000005" lon="-6.71651">
        <ele>504.4726867675781</ele>
        <time>2020-08-23T09:37:40.066Z</time>
      </trkpt>
      <trkpt lat="40.22242000000001" lon="-6.71668">
        <ele>502.5316162109375</ele>
        <time>2020-08-23T09:37:40.781Z</time>
      </trkpt>
      <trkpt lat="40.2226" lon="-6.7167900000000005">
        <ele>501.9437255859375</ele>
        <time>2020-08-23T09:37:41.503Z</time>
      </trkpt>
      <trkpt lat="40.222750000000005" lon="-6.71684">
        <ele>503.2064208984375</ele>
        <time>2020-08-23T09:37:42.230Z</time>
      </trkpt>
      <trkpt lat="40.223000000000006" lon="-6.71689">
        <ele>507.2906799316406</ele>
        <time>2020-08-23T09:37:42.966Z</time>
      </trkpt>
      <trkpt lat="40.223130000000005" lon="-6.71687">
        <ele>509.3423156738281</ele>
        <time>2020-08-23T09:37:43.706Z</time>
      </trkpt>
      <trkpt lat="40.22334" lon="-6.7169300000000005">
        <ele>512.5457763671875</ele>
        <time>2020-08-23T09:37:44.453Z</time>
      </trkpt>
      <trkpt lat="40.22336000000001" lon="-6.71705">
        <ele>513.33837890625</ele>
        <time>2020-08-23T09:37:45.203Z</time>
      </trkpt>
      <trkpt lat="40.22319" lon="-6.7172600000000005">
        <ele>510.72283935546875</ele>
        <time>2020-08-23T09:37:45.961Z</time>
      </trkpt>
      <trkpt lat="40.222970000000004" lon="-6.7174700000000005">
        <ele>506.3623046875</ele>
        <time>2020-08-23T09:37:46.728Z</time>
      </trkpt>
      <trkpt lat="40.2229" lon="-6.7176100000000005">
        <ele>505.0911560058594</ele>
        <time>2020-08-23T09:37:47.499Z</time>
      </trkpt>
      <trkpt lat="40.22288" lon="-6.717790000000001">
        <ele>504.7552185058594</ele>
        <time>2020-08-23T09:37:48.275Z</time>
      </trkpt>
      <trkpt lat="40.2229" lon="-6.71792">
        <ele>505.0911560058594</ele>
        <time>2020-08-23T09:37:49.054Z</time>
      </trkpt>
      <trkpt lat="40.222950000000004" lon="-6.7180800000000005">
        <ele>505.9310302734375</ele>
        <time>2020-08-23T09:37:49.838Z</time>
      </trkpt>
      <trkpt lat="40.22307" lon="-6.71818">
        <ele>507.8583679199219</ele>
        <time>2020-08-23T09:37:50.627Z</time>
      </trkpt>
      <trkpt lat="40.22308" lon="-6.71827">
        <ele>507.2464599609375</ele>
        <time>2020-08-23T09:37:51.418Z</time>
      </trkpt>
      <trkpt lat="40.22328" lon="-6.718430000000001">
        <ele>508.7821960449219</ele>
        <time>2020-08-23T09:37:52.217Z</time>
      </trkpt>
      <trkpt lat="40.22335" lon="-6.71846">
        <ele>509.5380859375</ele>
        <time>2020-08-23T09:37:53.018Z</time>
      </trkpt>
      <trkpt lat="40.223490000000005" lon="-6.71844">
        <ele>511.7217102050781</ele>
        <time>2020-08-23T09:37:53.824Z</time>
      </trkpt>
      <trkpt lat="40.223620000000004" lon="-6.71832">
        <ele>514.6012573242188</ele>
        <time>2020-08-23T09:37:54.635Z</time>
      </trkpt>
      <trkpt lat="40.223670000000006" lon="-6.7182200000000005">
        <ele>516.1609497070312</ele>
        <time>2020-08-23T09:37:55.449Z</time>
      </trkpt>
      <trkpt lat="40.223650000000006" lon="-6.71818">
        <ele>516.208984375</ele>
        <time>2020-08-23T09:37:56.264Z</time>
      </trkpt>
      <trkpt lat="40.223670000000006" lon="-6.71818">
        <ele>516.4968872070312</ele>
        <time>2020-08-23T09:37:57.080Z</time>
      </trkpt>
      <trkpt lat="40.223670000000006" lon="-6.7182">
        <ele>516.3289184570312</ele>
        <time>2020-08-23T09:37:57.897Z</time>
      </trkpt>
      <trkpt lat="40.223690000000005" lon="-6.71818">
        <ele>516.7848510742188</ele>
        <time>2020-08-23T09:37:58.714Z</time>
      </trkpt>
      <trkpt lat="40.2237" lon="-6.71811">
        <ele>517.5167236328125</ele>
        <time>2020-08-23T09:37:59.533Z</time>
      </trkpt>
      <trkpt lat="40.22379" lon="-6.71799">
        <ele>519.8174438476562</ele>
        <time>2020-08-23T09:38:00.357Z</time>
      </trkpt>
      <trkpt lat="40.223850000000006" lon="-6.7178700000000005">
        <ele>521.6171264648438</ele>
        <time>2020-08-23T09:38:01.184Z</time>
      </trkpt>
      <trkpt lat="40.22386" lon="-6.71778">
        <ele>522.5050048828125</ele>
        <time>2020-08-23T09:38:02.013Z</time>
      </trkpt>
      <trkpt lat="40.223910000000004" lon="-6.71773">
        <ele>523.5848388671875</ele>
        <time>2020-08-23T09:38:02.845Z</time>
      </trkpt>
      <trkpt lat="40.22413" lon="-6.71759">
        <ele>527.6641235351562</ele>
        <time>2020-08-23T09:38:03.685Z</time>
      </trkpt>
      <trkpt lat="40.224430000000005" lon="-6.71748">
        <ele>532.54736328125</ele>
        <time>2020-08-23T09:38:04.535Z</time>
      </trkpt>
      <trkpt lat="40.22457" lon="-6.7174700000000005">
        <ele>534.3594360351562</ele>
        <time>2020-08-23T09:38:05.390Z</time>
      </trkpt>
      <trkpt lat="40.22469" lon="-6.7174000000000005">
        <ele>536.2456665039062</ele>
        <time>2020-08-23T09:38:06.249Z</time>
      </trkpt>
      <trkpt lat="40.22496" lon="-6.71712">
        <ele>541.5368041992188</ele>
        <time>2020-08-23T09:38:07.120Z</time>
      </trkpt>
      <trkpt lat="40.22513" lon="-6.71698">
        <ele>544.476318359375</ele>
        <time>2020-08-23T09:38:07.997Z</time>
      </trkpt>
      <trkpt lat="40.22556" lon="-6.71635">
        <ele>555.011962890625</ele>
        <time>2020-08-23T09:38:08.896Z</time>
      </trkpt>
      <trkpt lat="40.22572" lon="-6.7161800000000005">
        <ele>558.9113159179688</ele>
        <time>2020-08-23T09:38:09.802Z</time>
      </trkpt>
      <trkpt lat="40.22607" lon="-6.71593">
        <ele>566.6510620117188</ele>
        <time>2020-08-23T09:38:10.721Z</time>
      </trkpt>
      <trkpt lat="40.22616" lon="-6.7159200000000014">
        <ele>567.8508911132812</ele>
        <time>2020-08-23T09:38:11.643Z</time>
      </trkpt>
      <trkpt lat="40.2263" lon="-6.71579">
        <ele>571.14794921875</ele>
        <time>2020-08-23T09:38:12.571Z</time>
      </trkpt>
      <trkpt lat="40.22632" lon="-6.71574">
        <ele>572.0838012695312</ele>
        <time>2020-08-23T09:38:13.500Z</time>
      </trkpt>
      <trkpt lat="40.226470000000006" lon="-6.7156">
        <ele>575.3023681640625</ele>
        <time>2020-08-23T09:38:14.435Z</time>
      </trkpt>
      <trkpt lat="40.22659" lon="-6.7155000000000005">
        <ele>577.5579833984375</ele>
        <time>2020-08-23T09:38:15.375Z</time>
      </trkpt>
      <trkpt lat="40.22674000000001" lon="-6.7153100000000014">
        <ele>580.5335083007812</ele>
        <time>2020-08-23T09:38:16.322Z</time>
      </trkpt>
      <trkpt lat="40.22683000000001" lon="-6.7152400000000005">
        <ele>582.2131958007812</ele>
        <time>2020-08-23T09:38:17.273Z</time>
      </trkpt>
      <trkpt lat="40.22711" lon="-6.71525">
        <ele>586.8923950195312</ele>
        <time>2020-08-23T09:38:18.233Z</time>
      </trkpt>
      <trkpt lat="40.22724" lon="-6.71532">
        <ele>587.91259765625</ele>
        <time>2020-08-23T09:38:19.198Z</time>
      </trkpt>
      <trkpt lat="40.227360000000004" lon="-6.71536">
        <ele>588.8244018554688</ele>
        <time>2020-08-23T09:38:20.167Z</time>
      </trkpt>
      <trkpt lat="40.227790000000006" lon="-6.71534">
        <ele>592.1162719726562</ele>
        <time>2020-08-23T09:38:21.150Z</time>
      </trkpt>
      <trkpt lat="40.2282" lon="-6.71546">
        <ele>594.0270385742188</ele>
        <time>2020-08-23T09:38:22.147Z</time>
      </trkpt>
      <trkpt lat="40.228320000000004" lon="-6.7154300000000005">
        <ele>594.0630493164062</ele>
        <time>2020-08-23T09:38:23.148Z</time>
      </trkpt>
      <trkpt lat="40.228550000000006" lon="-6.71522">
        <ele>595.7787475585938</ele>
        <time>2020-08-23T09:38:24.158Z</time>
      </trkpt>
      <trkpt lat="40.22881" lon="-6.71492">
        <ele>598.2907104492188</ele>
        <time>2020-08-23T09:38:25.180Z</time>
      </trkpt>
      <trkpt lat="40.228880000000004" lon="-6.7148900000000005">
        <ele>598.1107788085938</ele>
        <time>2020-08-23T09:38:26.204Z</time>
      </trkpt>
      <trkpt lat="40.229060000000004" lon="-6.71464">
        <ele>599.2401123046875</ele>
        <time>2020-08-23T09:38:27.237Z</time>
      </trkpt>
      <trkpt lat="40.229220000000005" lon="-6.71452">
        <ele>599.2401123046875</ele>
        <time>2020-08-23T09:38:28.276Z</time>
      </trkpt>
      <trkpt lat="40.22948" lon="-6.71419">
        <ele>600.535888671875</ele>
        <time>2020-08-23T09:38:29.327Z</time>
      </trkpt>
      <trkpt lat="40.229600000000005" lon="-6.7141">
        <ele>600.535888671875</ele>
        <time>2020-08-23T09:38:30.383Z</time>
      </trkpt>
      <trkpt lat="40.2297" lon="-6.71407">
        <ele>601.2286376953125</ele>
        <time>2020-08-23T09:38:31.443Z</time>
      </trkpt>
      <trkpt lat="40.22992" lon="-6.71393">
        <ele>602.7672729492188</ele>
        <time>2020-08-23T09:38:32.511Z</time>
      </trkpt>
      <trkpt lat="40.230000000000004" lon="-6.71393">
        <ele>603.3432006835938</ele>
        <time>2020-08-23T09:38:33.581Z</time>
      </trkpt>
      <trkpt lat="40.23006" lon="-6.71384">
        <ele>603.451171875</ele>
        <time>2020-08-23T09:38:34.654Z</time>
      </trkpt>
      <trkpt lat="40.230140000000006" lon="-6.71379">
        <ele>603.8471069335938</ele>
        <time>2020-08-23T09:38:35.730Z</time>
      </trkpt>
      <trkpt lat="40.23035" lon="-6.71379">
        <ele>605.35888671875</ele>
        <time>2020-08-23T09:38:36.813Z</time>
      </trkpt>
      <trkpt lat="40.230500000000006" lon="-6.7137400000000005">
        <ele>606.7407836914062</ele>
        <time>2020-08-23T09:38:37.901Z</time>
      </trkpt>
      <trkpt lat="40.23068000000001" lon="-6.7137400000000005">
        <ele>609.980224609375</ele>
        <time>2020-08-23T09:38:38.995Z</time>
      </trkpt>
      <trkpt lat="40.23122" lon="-6.71379">
        <ele>620.5017700195312</ele>
        <time>2020-08-23T09:38:40.108Z</time>
      </trkpt>
      <trkpt lat="40.23133" lon="-6.71382">
        <ele>623.1031494140625</ele>
        <time>2020-08-23T09:38:41.224Z</time>
      </trkpt>
      <trkpt lat="40.23154" lon="-6.71393">
        <ele>627.5000610351562</ele>
        <time>2020-08-23T09:38:42.348Z</time>
      </trkpt>
      <trkpt lat="40.23158" lon="-6.71393">
        <ele>628.0759887695312</ele>
        <time>2020-08-23T09:38:43.473Z</time>
      </trkpt>
      <trkpt lat="40.23169" lon="-6.71384">
        <ele>630.4155883789062</ele>
        <time>2020-08-23T09:38:44.602Z</time>
      </trkpt>
      <trkpt lat="40.23216" lon="-6.71386">
        <ele>636.7431030273438</ele>
        <time>2020-08-23T09:38:45.747Z</time>
      </trkpt>
      <trkpt lat="40.23255" lon="-6.71365">
        <ele>640.7029418945312</ele>
        <time>2020-08-23T09:38:46.906Z</time>
      </trkpt>
      <trkpt lat="40.23288" lon="-6.7133400000000005">
        <ele>645.3941650390625</ele>
        <time>2020-08-23T09:38:48.079Z</time>
      </trkpt>
      <trkpt lat="40.23331" lon="-6.7127300000000005">
        <ele>647.4281616210938</ele>
        <time>2020-08-23T09:38:49.273Z</time>
      </trkpt>
      <trkpt lat="40.23371" lon="-6.7120500000000005">
        <ele>652.396728515625</ele>
        <time>2020-08-23T09:38:50.489Z</time>
      </trkpt>
      <trkpt lat="40.23398" lon="-6.71126">
        <ele>663.2948608398438</ele>
        <time>2020-08-23T09:38:51.727Z</time>
      </trkpt>
      <trkpt lat="40.234280000000005" lon="-6.71065">
        <ele>667.1192016601562</ele>
        <time>2020-08-23T09:38:52.983Z</time>
      </trkpt>
      <trkpt lat="40.234500000000004" lon="-6.70987">
        <ele>683.6876831054688</ele>
        <time>2020-08-23T09:38:54.261Z</time>
      </trkpt>
      <trkpt lat="40.234640000000006" lon="-6.70955">
        <ele>689.471923828125</ele>
        <time>2020-08-23T09:38:55.548Z</time>
      </trkpt>
      <trkpt lat="40.234880000000004" lon="-6.7093300000000005">
        <ele>689.9758911132812</ele>
        <time>2020-08-23T09:38:56.845Z</time>
      </trkpt>
      <trkpt lat="40.234930000000006" lon="-6.70924">
        <ele>690.875732421875</ele>
        <time>2020-08-23T09:38:58.145Z</time>
      </trkpt>
      <trkpt lat="40.23501" lon="-6.70898">
        <ele>695.12109375</ele>
        <time>2020-08-23T09:38:59.452Z</time>
      </trkpt>
      <trkpt lat="40.2351" lon="-6.70887">
        <ele>697.2567138671875</ele>
        <time>2020-08-23T09:39:00.763Z</time>
      </trkpt>
      <trkpt lat="40.235170000000004" lon="-6.70882">
        <ele>697.8086547851562</ele>
        <time>2020-08-23T09:39:02.076Z</time>
      </trkpt>
      <trkpt lat="40.23537" lon="-6.708600000000001">
        <ele>701.7919921875</ele>
        <time>2020-08-23T09:39:03.398Z</time>
      </trkpt>
      <trkpt lat="40.23552" lon="-6.70849">
        <ele>701.991943359375</ele>
        <time>2020-08-23T09:39:04.726Z</time>
      </trkpt>
      <trkpt lat="40.23555" lon="-6.70842">
        <ele>703.23974609375</ele>
        <time>2020-08-23T09:39:06.056Z</time>
      </trkpt>
      <trkpt lat="40.23556000000001" lon="-6.70821">
        <ele>709.4786987304688</ele>
        <time>2020-08-23T09:39:07.391Z</time>
      </trkpt>
      <trkpt lat="40.23563" lon="-6.70793">
        <ele>716.0726318359375</ele>
        <time>2020-08-23T09:39:08.734Z</time>
      </trkpt>
      <trkpt lat="40.23575" lon="-6.7076">
        <ele>721.795654296875</ele>
        <time>2020-08-23T09:39:10.086Z</time>
      </trkpt>
      <trkpt lat="40.23581" lon="-6.7073100000000005">
        <ele>728.6339111328125</ele>
        <time>2020-08-23T09:39:11.446Z</time>
      </trkpt>
      <trkpt lat="40.23583" lon="-6.70727">
        <ele>729.7857055664062</ele>
        <time>2020-08-23T09:39:12.807Z</time>
      </trkpt>
      <trkpt lat="40.23595" lon="-6.7072">
        <ele>729.9656372070312</ele>
        <time>2020-08-23T09:39:14.172Z</time>
      </trkpt>
      <trkpt lat="40.236000000000004" lon="-6.7071000000000005">
        <ele>732.8451538085938</ele>
        <time>2020-08-23T09:39:15.541Z</time>
      </trkpt>
      <trkpt lat="40.23599" lon="-6.70706">
        <ele>734.6448974609375</ele>
        <time>2020-08-23T09:39:16.911Z</time>
      </trkpt>
      <trkpt lat="40.235910000000004" lon="-6.70699">
        <ele>739.1441040039062</ele>
        <time>2020-08-23T09:39:18.284Z</time>
      </trkpt>
      <trkpt lat="40.23588" lon="-6.7068900000000005">
        <ele>742.97900390625</ele>
        <time>2020-08-23T09:39:19.660Z</time>
      </trkpt>
      <trkpt lat="40.23579" lon="-6.706770000000001">
        <ele>746.650390625</ele>
        <time>2020-08-23T09:39:21.040Z</time>
      </trkpt>
      <trkpt lat="40.23565000000001" lon="-6.7065">
        <ele>754.2572021484375</ele>
        <time>2020-08-23T09:39:22.428Z</time>
      </trkpt>
      <trkpt lat="40.23561" lon="-6.70647">
        <ele>755.1210327148438</ele>
        <time>2020-08-23T09:39:23.818Z</time>
      </trkpt>
      <trkpt lat="40.23545" lon="-6.70638">
        <ele>758.3543090820312</ele>
        <time>2020-08-23T09:39:25.213Z</time>
      </trkpt>
      <trkpt lat="40.235310000000005" lon="-6.7060200000000005">
        <ele>763.0335083007812</ele>
        <time>2020-08-23T09:39:26.619Z</time>
      </trkpt>
      <trkpt lat="40.235260000000004" lon="-6.70596">
        <ele>763.1414794921875</ele>
        <time>2020-08-23T09:39:28.027Z</time>
      </trkpt>
      <trkpt lat="40.235200000000006" lon="-6.70551">
        <ele>767.5372314453125</ele>
        <time>2020-08-23T09:39:29.447Z</time>
      </trkpt>
      <trkpt lat="40.235220000000005" lon="-6.7053400000000005">
        <ele>768.9290161132812</ele>
        <time>2020-08-23T09:39:30.871Z</time>
      </trkpt>
      <trkpt lat="40.2353" lon="-6.70518">
        <ele>772.00048828125</ele>
        <time>2020-08-23T09:39:32.300Z</time>
      </trkpt>
      <trkpt lat="40.23539" lon="-6.7051300000000005">
        <ele>774.83203125</ele>
        <time>2020-08-23T09:39:33.732Z</time>
      </trkpt>
      <trkpt lat="40.23552" lon="-6.70516">
        <ele>776.5940551757812</ele>
        <time>2020-08-23T09:39:35.169Z</time>
      </trkpt>
      <trkpt lat="40.2357" lon="-6.70511">
        <ele>776.833984375</ele>
        <time>2020-08-23T09:39:36.612Z</time>
      </trkpt>
      <trkpt lat="40.235820000000004" lon="-6.70511">
        <ele>776.833984375</ele>
        <time>2020-08-23T09:39:38.059Z</time>
      </trkpt>
      <trkpt lat="40.23592" lon="-6.70516">
        <ele>776.5940551757812</ele>
        <time>2020-08-23T09:39:39.509Z</time>
      </trkpt>
      <trkpt lat="40.23608" lon="-6.7053">
        <ele>773.5109252929688</ele>
        <time>2020-08-23T09:39:40.966Z</time>
      </trkpt>
      <trkpt lat="40.236160000000005" lon="-6.7053">
        <ele>772.6470947265625</ele>
        <time>2020-08-23T09:39:42.425Z</time>
      </trkpt>
      <trkpt lat="40.23619" lon="-6.7052700000000005">
        <ele>772.791015625</ele>
        <time>2020-08-23T09:39:43.886Z</time>
      </trkpt>
      <trkpt lat="40.23626" lon="-6.70502">
        <ele>775.9345092773438</ele>
        <time>2020-08-23T09:39:45.353Z</time>
      </trkpt>
      <trkpt lat="40.23648" lon="-6.704400000000001">
        <ele>770.0282592773438</ele>
        <time>2020-08-23T09:39:46.838Z</time>
      </trkpt>
      <trkpt lat="40.23659000000001" lon="-6.70401">
        <ele>765.4441528320312</ele>
        <time>2020-08-23T09:39:48.334Z</time>
      </trkpt>
      <trkpt lat="40.23671" lon="-6.7037700000000005">
        <ele>763.7164306640625</ele>
        <time>2020-08-23T09:39:49.837Z</time>
      </trkpt>
      <trkpt lat="40.2368" lon="-6.70335">
        <ele>762.3102416992188</ele>
        <time>2020-08-23T09:39:51.351Z</time>
      </trkpt>
      <trkpt lat="40.236740000000005" lon="-6.7029000000000005">
        <ele>762.0945434570312</ele>
        <time>2020-08-23T09:39:52.877Z</time>
      </trkpt>
      <trkpt lat="40.236760000000004" lon="-6.7026200000000005">
        <ele>761.278076171875</ele>
        <time>2020-08-23T09:39:54.410Z</time>
      </trkpt>
      <trkpt lat="40.236740000000005" lon="-6.70192">
        <ele>761.1981811523438</ele>
        <time>2020-08-23T09:39:55.961Z</time>
      </trkpt>
      <trkpt lat="40.23677" lon="-6.70145">
        <ele>760.1991577148438</ele>
        <time>2020-08-23T09:39:57.524Z</time>
      </trkpt>
      <trkpt lat="40.236830000000005" lon="-6.70131">
        <ele>757.5115966796875</ele>
        <time>2020-08-23T09:39:59.091Z</time>
      </trkpt>
      <trkpt lat="40.23682" lon="-6.70082">
        <ele>756.2803344726562</ele>
        <time>2020-08-23T09:40:00.670Z</time>
      </trkpt>
      <trkpt lat="40.2368" lon="-6.70058">
        <ele>757.2196044921875</ele>
        <time>2020-08-23T09:40:02.256Z</time>
      </trkpt>
      <trkpt lat="40.236700000000006" lon="-6.70028">
        <ele>759.840087890625</ele>
        <time>2020-08-23T09:40:03.850Z</time>
      </trkpt>
      <trkpt lat="40.236610000000006" lon="-6.69976">
        <ele>767.8770751953125</ele>
        <time>2020-08-23T09:40:05.457Z</time>
      </trkpt>
      <trkpt lat="40.2366" lon="-6.69946">
        <ele>771.1455078125</ele>
        <time>2020-08-23T09:40:07.072Z</time>
      </trkpt>
      <trkpt lat="40.236610000000006" lon="-6.6993100000000005">
        <ele>771.9133911132812</ele>
        <time>2020-08-23T09:40:08.691Z</time>
      </trkpt>
      <trkpt lat="40.236650000000004" lon="-6.69904">
        <ele>772.2133178710938</ele>
        <time>2020-08-23T09:40:10.317Z</time>
      </trkpt>
      <trkpt lat="40.2368" lon="-6.69859">
        <ele>769.1451416015625</ele>
        <time>2020-08-23T09:40:11.956Z</time>
      </trkpt>
      <trkpt lat="40.23696" lon="-6.69779">
        <ele>769.9317626953125</ele>
        <time>2020-08-23T09:40:13.616Z</time>
      </trkpt>
      <trkpt lat="40.23697000000001" lon="-6.69753">
        <ele>771.87548828125</ele>
        <time>2020-08-23T09:40:15.282Z</time>
      </trkpt>
      <trkpt lat="40.237010000000005" lon="-6.6972700000000005">
        <ele>774.01220703125</ele>
        <time>2020-08-23T09:40:16.955Z</time>
      </trkpt>
      <trkpt lat="40.23702" lon="-6.69709">
        <ele>777.0596923828125</ele>
        <time>2020-08-23T09:40:18.633Z</time>
      </trkpt>
      <trkpt lat="40.237190000000005" lon="-6.6959100000000005">
        <ele>799.2223510742188</ele>
        <time>2020-08-23T09:40:20.341Z</time>
      </trkpt>
      <trkpt lat="40.23731" lon="-6.69526">
        <ele>818.671875</ele>
        <time>2020-08-23T09:40:22.066Z</time>
      </trkpt>
      <trkpt lat="40.23736" lon="-6.69514">
        <ele>821.8753662109375</ele>
        <time>2020-08-23T09:40:23.795Z</time>
      </trkpt>
      <trkpt lat="40.237350000000006" lon="-6.695150000000001">
        <ele>821.67138671875</ele>
        <time>2020-08-23T09:40:25.524Z</time>
      </trkpt>
      <trkpt lat="40.237390000000005" lon="-6.695110000000001">
        <ele>822.4872436523438</ele>
        <time>2020-08-23T09:40:27.255Z</time>
      </trkpt>
      <trkpt lat="40.237480000000005" lon="-6.695110000000001">
        <ele>821.5154418945312</ele>
        <time>2020-08-23T09:40:28.989Z</time>
      </trkpt>
      <trkpt lat="40.237590000000004" lon="-6.69514">
        <ele>819.3917846679688</ele>
        <time>2020-08-23T09:40:30.727Z</time>
      </trkpt>
      <trkpt lat="40.237750000000005" lon="-6.69514">
        <ele>816.9295654296875</ele>
        <time>2020-08-23T09:40:32.470Z</time>
      </trkpt>
      <trkpt lat="40.23791000000001" lon="-6.69502">
        <ele>818.5133056640625</ele>
        <time>2020-08-23T09:40:34.219Z</time>
      </trkpt>
      <trkpt lat="40.23800000000001" lon="-6.69488">
        <ele>824.7394409179688</ele>
        <time>2020-08-23T09:40:35.973Z</time>
      </trkpt>
      <trkpt lat="40.23825" lon="-6.6946">
        <ele>845.8881225585938</ele>
        <time>2020-08-23T09:40:37.738Z</time>
      </trkpt>
      <trkpt lat="40.2383" lon="-6.6946">
        <ele>847.4478759765625</ele>
        <time>2020-08-23T09:40:39.505Z</time>
      </trkpt>
      <trkpt lat="40.238350000000004" lon="-6.69465">
        <ele>846.6080322265625</ele>
        <time>2020-08-23T09:40:41.274Z</time>
      </trkpt>
      <trkpt lat="40.2385" lon="-6.6949000000000005">
        <ele>839.4969482421875</ele>
        <time>2020-08-23T09:40:43.051Z</time>
      </trkpt>
      <trkpt lat="40.239000000000004" lon="-6.6953700000000005">
        <ele>831.7782592773438</ele>
        <time>2020-08-23T09:40:44.848Z</time>
      </trkpt>
      <trkpt lat="40.2393" lon="-6.69547">
        <ele>832.0344848632812</ele>
        <time>2020-08-23T09:40:46.656Z</time>
      </trkpt>
      <trkpt lat="40.239450000000005" lon="-6.69547">
        <ele>834.3740844726562</ele>
        <time>2020-08-23T09:40:48.469Z</time>
      </trkpt>
      <trkpt lat="40.239790000000006" lon="-6.6954">
        <ele>839.5781860351562</ele>
        <time>2020-08-23T09:40:50.293Z</time>
      </trkpt>
      <trkpt lat="40.23979001587203" lon="-6.695399998619812">
        <ele>839.578125</ele>
        <time>2020-08-23T09:40:52.117Z</time>
      </trkpt>
      <trkpt lat="40.24002" lon="-6.69538">
        <ele>839.6300659179688</ele>
        <time>2020-08-23T09:40:53.949Z</time>
      </trkpt>
      <trkpt lat="40.240300000000005" lon="-6.6953000000000005">
        <ele>843.5173950195312</ele>
        <time>2020-08-23T09:40:55.790Z</time>
      </trkpt>
      <trkpt lat="40.240750000000006" lon="-6.6950400000000005">
        <ele>858.4114990234375</ele>
        <time>2020-08-23T09:40:57.648Z</time>
      </trkpt>
      <trkpt lat="40.24112" lon="-6.6947600000000005">
        <ele>874.5839233398438</ele>
        <time>2020-08-23T09:40:59.520Z</time>
      </trkpt>
      <trkpt lat="40.24128" lon="-6.6946900000000005">
        <ele>879.2510986328125</ele>
        <time>2020-08-23T09:41:01.398Z</time>
      </trkpt>
      <trkpt lat="40.24156" lon="-6.69465">
        <ele>884.7378540039062</ele>
        <time>2020-08-23T09:41:03.285Z</time>
      </trkpt>
      <trkpt lat="40.241800000000005" lon="-6.69465">
        <ele>894.240234375</ele>
        <time>2020-08-23T09:41:05.180Z</time>
      </trkpt>
      <trkpt lat="40.24194000000001" lon="-6.6946900000000005">
        <ele>899.3994140625</ele>
        <time>2020-08-23T09:41:07.080Z</time>
      </trkpt>
      <trkpt lat="40.241960000000006" lon="-6.6946200000000005">
        <ele>900.8631591796875</ele>
        <time>2020-08-23T09:41:08.982Z</time>
      </trkpt>
      <trkpt lat="40.24154" lon="-6.69439">
        <ele>893.7584838867188</ele>
        <time>2020-08-23T09:41:10.899Z</time>
      </trkpt>
      <trkpt lat="40.24146" lon="-6.6943600000000005">
        <ele>894.4423828125</ele>
        <time>2020-08-23T09:41:12.819Z</time>
      </trkpt>
      <trkpt lat="40.241440000000004" lon="-6.69434">
        <ele>895.1382446289062</ele>
        <time>2020-08-23T09:41:14.739Z</time>
      </trkpt>
      <trkpt lat="40.24147000000001" lon="-6.6943">
        <ele>897.033935546875</ele>
        <time>2020-08-23T09:41:16.661Z</time>
      </trkpt>
      <trkpt lat="40.241800000000005" lon="-6.6942">
        <ele>903.6088256835938</ele>
        <time>2020-08-23T09:41:18.594Z</time>
      </trkpt>
      <trkpt lat="40.24215" lon="-6.6942900000000005">
        <ele>910.8662109375</ele>
        <time>2020-08-23T09:41:20.539Z</time>
      </trkpt>
      <trkpt lat="40.242230000000006" lon="-6.6942900000000005">
        <ele>911.9220581054688</ele>
        <time>2020-08-23T09:41:22.487Z</time>
      </trkpt>
      <trkpt lat="40.242430000000006" lon="-6.6942200000000005">
        <ele>915.2335205078125</ele>
        <time>2020-08-23T09:41:24.442Z</time>
      </trkpt>
      <trkpt lat="40.242700000000006" lon="-6.6942">
        <ele>918.9888916015625</ele>
        <time>2020-08-23T09:41:26.406Z</time>
      </trkpt>
      <trkpt lat="40.24279000000001" lon="-6.6941500000000005">
        <ele>920.6566162109375</ele>
        <time>2020-08-23T09:41:28.373Z</time>
      </trkpt>
      <trkpt lat="40.24284" lon="-6.6940100000000005">
        <ele>922.5814208984375</ele>
        <time>2020-08-23T09:41:30.344Z</time>
      </trkpt>
      <trkpt lat="40.24288000000001" lon="-6.69404">
        <ele>922.9002075195312</ele>
        <time>2020-08-23T09:41:32.316Z</time>
      </trkpt>
      <trkpt lat="40.24293" lon="-6.6940100000000005">
        <ele>923.7692260742188</ele>
        <time>2020-08-23T09:41:34.290Z</time>
      </trkpt>
      <trkpt lat="40.243" lon="-6.6939400000000004">
        <ele>924.4491577148438</ele>
        <time>2020-08-23T09:41:36.267Z</time>
      </trkpt>
      <trkpt lat="40.24309" lon="-6.69376">
        <ele>925.3130493164062</ele>
        <time>2020-08-23T09:41:38.250Z</time>
      </trkpt>
      <trkpt lat="40.24326000000001" lon="-6.6935400000000005">
        <ele>926.2249145507812</ele>
        <time>2020-08-23T09:41:40.240Z</time>
      </trkpt>
      <trkpt lat="40.24335000000001" lon="-6.69345">
        <ele>926.548828125</ele>
        <time>2020-08-23T09:41:42.234Z</time>
      </trkpt>
      <trkpt lat="40.24354" lon="-6.693350000000001">
        <ele>926.6928100585938</ele>
        <time>2020-08-23T09:41:44.235Z</time>
      </trkpt>
      <trkpt lat="40.24354" lon="-6.69336">
        <ele>926.6328125</ele>
        <time>2020-08-23T09:41:46.236Z</time>
      </trkpt>
      <trkpt lat="40.24372" lon="-6.693390000000001">
        <ele>926.7447509765625</ele>
        <time>2020-08-23T09:41:48.243Z</time>
      </trkpt>
      <trkpt lat="40.24362" lon="-6.6938">
        <ele>926.3848266601562</ele>
        <time>2020-08-23T09:41:50.261Z</time>
      </trkpt>
      <trkpt lat="40.24327" lon="-6.6949000000000005">
        <ele>926.0415649414062</ele>
        <time>2020-08-23T09:41:52.310Z</time>
      </trkpt>
      <trkpt lat="40.24327" lon="-6.69526">
        <ele>926.4734497070312</ele>
        <time>2020-08-23T09:41:54.368Z</time>
      </trkpt>
      <trkpt lat="40.24329" lon="-6.69538">
        <ele>926.69970703125</ele>
        <time>2020-08-23T09:41:56.429Z</time>
      </trkpt>
      <trkpt lat="40.243370000000006" lon="-6.69559">
        <ele>928.69140625</ele>
        <time>2020-08-23T09:41:58.496Z</time>
      </trkpt>
      <trkpt lat="40.243460000000006" lon="-6.6957">
        <ele>929.9954833984375</ele>
        <time>2020-08-23T09:42:00.567Z</time>
      </trkpt>
      <trkpt lat="40.24428" lon="-6.69643">
        <ele>928.4640502929688</ele>
        <time>2020-08-23T09:42:02.671Z</time>
      </trkpt>
      <trkpt lat="40.244350000000004" lon="-6.69648">
        <ele>928.6080322265625</ele>
        <time>2020-08-23T09:42:04.778Z</time>
      </trkpt>
      <trkpt lat="40.244420000000005" lon="-6.69648">
        <ele>928.6920166015625</ele>
        <time>2020-08-23T09:42:06.887Z</time>
      </trkpt>
      <trkpt lat="40.24465" lon="-6.696400000000001">
        <ele>928.7183227539062</ele>
        <time>2020-08-23T09:42:09.004Z</time>
      </trkpt>
      <trkpt lat="40.2455" lon="-6.69608">
        <ele>923.7471923828125</ele>
        <time>2020-08-23T09:42:11.151Z</time>
      </trkpt>
      <trkpt lat="40.24568" lon="-6.6960500000000005">
        <ele>922.6673583984375</ele>
        <time>2020-08-23T09:42:13.304Z</time>
      </trkpt>
      <trkpt lat="40.245760000000004" lon="-6.69608">
        <ele>922.1874389648438</ele>
        <time>2020-08-23T09:42:15.459Z</time>
      </trkpt>
      <trkpt lat="40.24638" lon="-6.69676">
        <ele>918.8153076171875</ele>
        <time>2020-08-23T09:42:17.641Z</time>
      </trkpt>
      <trkpt lat="40.24647" lon="-6.69688">
        <ele>917.8794555664062</ele>
        <time>2020-08-23T09:42:19.828Z</time>
      </trkpt>
      <trkpt lat="40.246520000000004" lon="-6.69711">
        <ele>916.9676513671875</ele>
        <time>2020-08-23T09:42:22.021Z</time>
      </trkpt>
      <trkpt lat="40.246520000000004" lon="-6.69833">
        <ele>911.3139038085938</ele>
        <time>2020-08-23T09:42:24.245Z</time>
      </trkpt>
      <trkpt lat="40.246550000000006" lon="-6.69854">
        <ele>909.0103149414062</ele>
        <time>2020-08-23T09:42:26.474Z</time>
      </trkpt>
      <trkpt lat="40.24667" lon="-6.69866">
        <ele>907.620361328125</ele>
        <time>2020-08-23T09:42:28.708Z</time>
      </trkpt>
      <trkpt lat="40.248110000000004" lon="-6.699280000000001">
        <ele>917.7909545898438</ele>
        <time>2020-08-23T09:42:30.993Z</time>
      </trkpt>
      <trkpt lat="40.249550000000006" lon="-6.6999200000000005">
        <ele>929.1614990234375</ele>
        <time>2020-08-23T09:42:33.329Z</time>
      </trkpt>
      <trkpt lat="40.25011000000001" lon="-6.6999900000000014">
        <ele>928.82421875</ele>
        <time>2020-08-23T09:42:35.683Z</time>
      </trkpt>
      <trkpt lat="40.25041" lon="-6.70007">
        <ele>929.569091796875</ele>
        <time>2020-08-23T09:42:38.048Z</time>
      </trkpt>
      <trkpt lat="40.251810000000006" lon="-6.7011">
        <ele>947.9932250976562</ele>
        <time>2020-08-23T09:42:40.466Z</time>
      </trkpt>
      <trkpt lat="40.252320000000005" lon="-6.70136">
        <ele>953.9449462890625</ele>
        <time>2020-08-23T09:42:42.902Z</time>
      </trkpt>
      <trkpt lat="40.252860000000005" lon="-6.70152">
        <ele>959.1760864257812</ele>
        <time>2020-08-23T09:42:45.357Z</time>
      </trkpt>
      <trkpt lat="40.253280000000004" lon="-6.701530000000001">
        <ele>954.2022094726562</ele>
        <time>2020-08-23T09:42:47.826Z</time>
      </trkpt>
      <trkpt lat="40.25357" lon="-6.70185">
        <ele>948.0098266601562</ele>
        <time>2020-08-23T09:42:50.307Z</time>
      </trkpt>
      <trkpt lat="40.254180000000005" lon="-6.7026900000000005">
        <ele>936.3717651367188</ele>
        <time>2020-08-23T09:42:52.818Z</time>
      </trkpt>
      <trkpt lat="40.254870000000004" lon="-6.70354">
        <ele>926.0408325195312</ele>
        <time>2020-08-23T09:42:55.361Z</time>
      </trkpt>
      <trkpt lat="40.255660000000006" lon="-6.7041900000000005">
        <ele>922.2958374023438</ele>
        <time>2020-08-23T09:42:57.935Z</time>
      </trkpt>
      <trkpt lat="40.256310000000006" lon="-6.70462">
        <ele>916.9407958984375</ele>
        <time>2020-08-23T09:43:00.533Z</time>
      </trkpt>
      <trkpt lat="40.25773" lon="-6.70692">
        <ele>901.36962890625</ele>
        <time>2020-08-23T09:43:03.206Z</time>
      </trkpt>
      <trkpt lat="40.258860000000006" lon="-6.7095400000000005">
        <ele>917.1272583007812</ele>
        <time>2020-08-23T09:43:05.956Z</time>
      </trkpt>
      <trkpt lat="40.25901" lon="-6.70976">
        <ele>916.572265625</ele>
        <time>2020-08-23T09:43:08.714Z</time>
      </trkpt>
      <trkpt lat="40.259190000000004" lon="-6.70985">
        <ele>916.0323486328125</ele>
        <time>2020-08-23T09:43:11.478Z</time>
      </trkpt>
      <trkpt lat="40.259190037434905" lon="-6.709850010343782">
        <ele>916.0322265625</ele>
        <time>2020-08-23T09:43:14.242Z</time>
      </trkpt>
      <trkpt lat="40.25995" lon="-6.71006">
        <ele>911.6005859375</ele>
        <time>2020-08-23T09:43:17.032Z</time>
      </trkpt>
      <trkpt lat="40.26039" lon="-6.71011">
        <ele>908.2227783203125</ele>
        <time>2020-08-23T09:43:19.837Z</time>
      </trkpt>
      <trkpt lat="40.260540000000006" lon="-6.71006">
        <ele>907.6563110351562</ele>
        <time>2020-08-23T09:43:22.647Z</time>
      </trkpt>
      <trkpt lat="40.26115" lon="-6.7096100000000005">
        <ele>909.5109252929688</ele>
        <time>2020-08-23T09:43:25.480Z</time>
      </trkpt>
      <trkpt lat="40.26145" lon="-6.70945">
        <ele>911.6337890625</ele>
        <time>2020-08-23T09:43:28.324Z</time>
      </trkpt>
      <trkpt lat="40.261770000000006" lon="-6.7093300000000005">
        <ele>914.9452514648438</ele>
        <time>2020-08-23T09:43:31.179Z</time>
      </trkpt>
      <trkpt lat="40.262190000000004" lon="-6.709280000000001">
        <ele>919.4168701171875</ele>
        <time>2020-08-23T09:43:34.048Z</time>
      </trkpt>
      <trkpt lat="40.262570000000004" lon="-6.7094000000000005">
        <ele>920.8086547851562</ele>
        <time>2020-08-23T09:43:36.930Z</time>
      </trkpt>
      <trkpt lat="40.263090000000005" lon="-6.7096100000000005">
        <ele>925.6912841796875</ele>
        <time>2020-08-23T09:43:39.830Z</time>
      </trkpt>
      <trkpt lat="40.2637" lon="-6.70971">
        <ele>930.18505859375</ele>
        <time>2020-08-23T09:43:42.751Z</time>
      </trkpt>
      <trkpt lat="40.264430000000004" lon="-6.70978">
        <ele>937.4696655273438</ele>
        <time>2020-08-23T09:43:45.696Z</time>
      </trkpt>
      <trkpt lat="40.26516" lon="-6.709890000000001">
        <ele>943.0338745117188</ele>
        <time>2020-08-23T09:43:48.666Z</time>
      </trkpt>
      <trkpt lat="40.26549" lon="-6.70987">
        <ele>944.8566284179688</ele>
        <time>2020-08-23T09:43:51.647Z</time>
      </trkpt>
      <trkpt lat="40.26597" lon="-6.71034">
        <ele>943.1944580078125</ele>
        <time>2020-08-23T09:43:54.648Z</time>
      </trkpt>
      <trkpt lat="40.266760000000005" lon="-6.71175">
        <ele>952.02490234375</ele>
        <time>2020-08-23T09:43:57.693Z</time>
      </trkpt>
      <trkpt lat="40.266980000000004" lon="-6.71229">
        <ele>957.4436645507812</ele>
        <time>2020-08-23T09:44:00.754Z</time>
      </trkpt>
      <trkpt lat="40.26717" lon="-6.71292">
        <ele>965.1673583984375</ele>
        <time>2020-08-23T09:44:03.832Z</time>
      </trkpt>
      <trkpt lat="40.26776" lon="-6.71431">
        <ele>983.8453369140625</ele>
        <time>2020-08-23T09:44:06.951Z</time>
      </trkpt>
      <trkpt lat="40.268010000000004" lon="-6.71466">
        <ele>989.0314331054688</ele>
        <time>2020-08-23T09:44:10.082Z</time>
      </trkpt>
      <trkpt lat="40.26859" lon="-6.7155000000000005">
        <ele>996.61279296875</ele>
        <time>2020-08-23T09:44:13.242Z</time>
      </trkpt>
      <trkpt lat="40.26905" lon="-6.71607">
        <ele>1001.2010498046875</ele>
        <time>2020-08-23T09:44:16.423Z</time>
      </trkpt>
      <trkpt lat="40.26946" lon="-6.71694">
        <ele>1004.6279296875</ele>
        <time>2020-08-23T09:44:19.630Z</time>
      </trkpt>
      <trkpt lat="40.26946" lon="-6.716950000000001">
        <ele>1004.6879272460938</ele>
        <time>2020-08-23T09:44:22.837Z</time>
      </trkpt>
      <trkpt lat="40.26952" lon="-6.7174000000000005">
        <ele>1007.1302490234375</ele>
        <time>2020-08-23T09:44:26.056Z</time>
      </trkpt>
      <trkpt lat="40.26959" lon="-6.71834">
        <ele>1007.1849975585938</ele>
        <time>2020-08-23T09:44:29.299Z</time>
      </trkpt>
      <trkpt lat="40.269580000000005" lon="-6.71858">
        <ele>1007.2330322265625</ele>
        <time>2020-08-23T09:44:32.548Z</time>
      </trkpt>
      <trkpt lat="40.269540000000006" lon="-6.71895">
        <ele>1007.4249877929688</ele>
        <time>2020-08-23T09:44:35.807Z</time>
      </trkpt>
      <trkpt lat="40.269220000000004" lon="-6.71919">
        <ele>1008.4066772460938</ele>
        <time>2020-08-23T09:44:39.078Z</time>
      </trkpt>
      <trkpt lat="40.26915" lon="-6.7195100000000005">
        <ele>1007.5908203125</ele>
        <time>2020-08-23T09:44:42.357Z</time>
      </trkpt>
      <trkpt lat="40.26894" lon="-6.71996">
        <ele>1006.0452880859375</ele>
        <time>2020-08-23T09:44:45.650Z</time>
      </trkpt>
      <trkpt lat="40.26841" lon="-6.72071">
        <ele>999.3525390625</ele>
        <time>2020-08-23T09:44:48.969Z</time>
      </trkpt>
      <trkpt lat="40.26831000000001" lon="-6.7210600000000005">
        <ele>998.03271484375</ele>
        <time>2020-08-23T09:44:52.297Z</time>
      </trkpt>
      <trkpt lat="40.268260000000005" lon="-6.72151">
        <ele>994.0956420898438</ele>
        <time>2020-08-23T09:44:55.637Z</time>
      </trkpt>
      <trkpt lat="40.267500000000005" lon="-6.72423">
        <ele>986.7130737304688</ele>
        <time>2020-08-23T09:44:59.051Z</time>
      </trkpt>
      <trkpt lat="40.267320000000005" lon="-6.72461">
        <ele>990.7444458007812</ele>
        <time>2020-08-23T09:45:02.476Z</time>
      </trkpt>
      <trkpt lat="40.266180000000006" lon="-6.726360000000001">
        <ele>1009.2623901367188</ele>
        <time>2020-08-23T09:45:05.960Z</time>
      </trkpt>
      <trkpt lat="40.26435" lon="-6.72822">
        <ele>1017.2384033203125</ele>
        <time>2020-08-23T09:45:09.521Z</time>
      </trkpt>
      <trkpt lat="40.264050000000005" lon="-6.72841">
        <ele>1017.5383911132812</ele>
        <time>2020-08-23T09:45:13.093Z</time>
      </trkpt>
      <trkpt lat="40.26348" lon="-6.7285200000000005">
        <ele>1019.614013671875</ele>
        <time>2020-08-23T09:45:16.684Z</time>
      </trkpt>
      <trkpt lat="40.26261" lon="-6.7289">
        <ele>1021.6904296875</ele>
        <time>2020-08-23T09:45:20.306Z</time>
      </trkpt>
      <trkpt lat="40.26196" lon="-6.72925">
        <ele>1024.529541015625</ele>
        <time>2020-08-23T09:45:23.951Z</time>
      </trkpt>
      <trkpt lat="40.261790000000005" lon="-6.729500000000001">
        <ele>1023.8456420898438</ele>
        <time>2020-08-23T09:45:27.605Z</time>
      </trkpt>
      <trkpt lat="40.260949170620066" lon="-6.731131609350062">
        <ele>1018.525146484375</ele>
        <time>2020-08-23T09:45:31.309Z</time>
      </trkpt>
      <trkpt lat="40.26095" lon="-6.73113">
        <ele>1018.5325317382812</ele>
        <time>2020-08-23T09:45:35.013Z</time>
      </trkpt>
      <trkpt lat="40.25936" lon="-6.7327">
        <ele>1013.3316650390625</ele>
        <time>2020-08-23T09:45:38.784Z</time>
      </trkpt>
      <trkpt lat="40.25883" lon="-6.73366">
        <ele>1001.597412109375</ele>
        <time>2020-08-23T09:45:42.585Z</time>
      </trkpt>
      <trkpt lat="40.25867" lon="-6.7341500000000005">
        <ele>994.3525390625</ele>
        <time>2020-08-23T09:45:46.399Z</time>
      </trkpt>
      <trkpt lat="40.258370000000006" lon="-6.73488">
        <ele>981.9652099609375</ele>
        <time>2020-08-23T09:45:50.235Z</time>
      </trkpt>
      <trkpt lat="40.25811" lon="-6.73521">
        <ele>980.4414672851562</ele>
        <time>2020-08-23T09:45:54.083Z</time>
      </trkpt>
      <trkpt lat="40.257130000000004" lon="-6.73617">
        <ele>969.2347412109375</ele>
        <time>2020-08-23T09:45:57.971Z</time>
      </trkpt>
      <trkpt lat="40.2571" lon="-6.736330000000001">
        <ele>968.4442138671875</ele>
        <time>2020-08-23T09:46:01.864Z</time>
      </trkpt>
      <trkpt lat="40.256910000000005" lon="-6.7368500000000004">
        <ele>969.8568725585938</ele>
        <time>2020-08-23T09:46:05.771Z</time>
      </trkpt>
      <trkpt lat="40.25677" lon="-6.73784">
        <ele>974.3482055664062</ele>
        <time>2020-08-23T09:46:09.704Z</time>
      </trkpt>
      <trkpt lat="40.256730000000005" lon="-6.74075">
        <ele>990.2848510742188</ele>
        <time>2020-08-23T09:46:13.711Z</time>
      </trkpt>
      <trkpt lat="40.256600000000006" lon="-6.741140000000001">
        <ele>992.468505859375</ele>
        <time>2020-08-23T09:46:17.729Z</time>
      </trkpt>
      <trkpt lat="40.256170000000004" lon="-6.741880000000001">
        <ele>997.4081420898438</ele>
        <time>2020-08-23T09:46:21.771Z</time>
      </trkpt>
      <trkpt lat="40.25564000000001" lon="-6.7430200000000005">
        <ele>1002.655517578125</ele>
        <time>2020-08-23T09:46:25.847Z</time>
      </trkpt>
      <trkpt lat="40.25643" lon="-6.743650000000001">
        <ele>997.7485961914062</ele>
        <time>2020-08-23T09:46:29.954Z</time>
      </trkpt>
      <trkpt lat="40.25652" lon="-6.744160000000001">
        <ele>998.6682739257812</ele>
        <time>2020-08-23T09:46:34.074Z</time>
      </trkpt>
      <trkpt lat="40.25641" lon="-6.74436">
        <ele>1000.5519409179688</ele>
        <time>2020-08-23T09:46:38.200Z</time>
      </trkpt>
      <trkpt lat="40.256550000000004" lon="-6.74436">
        <ele>999.3761596679688</ele>
        <time>2020-08-23T09:46:42.331Z</time>
      </trkpt>
      <trkpt lat="40.25667000000001" lon="-6.744750000000001">
        <ele>999.9360961914062</ele>
        <time>2020-08-23T09:46:46.473Z</time>
      </trkpt>
      <trkpt lat="40.2567" lon="-6.7449900000000005">
        <ele>1001.0701293945312</ele>
        <time>2020-08-23T09:46:50.621Z</time>
      </trkpt>
      <trkpt lat="40.256600000000006" lon="-6.745190000000001">
        <ele>1003.7096557617188</ele>
        <time>2020-08-23T09:46:54.775Z</time>
      </trkpt>
      <trkpt lat="40.25648" lon="-6.74624">
        <ele>1012.8163452148438</ele>
        <time>2020-08-23T09:46:58.956Z</time>
      </trkpt>
      <trkpt lat="40.25649000000001" lon="-6.7465600000000014">
        <ele>1013.8765869140625</ele>
        <time>2020-08-23T09:47:03.145Z</time>
      </trkpt>
      <trkpt lat="40.25641" lon="-6.74671">
        <ele>1016.66015625</ele>
        <time>2020-08-23T09:47:07.339Z</time>
      </trkpt>
      <trkpt lat="40.25611000000001" lon="-6.74697">
        <ele>1024.853515625</ele>
        <time>2020-08-23T09:47:11.545Z</time>
      </trkpt>
      <trkpt lat="40.2554" lon="-6.74645">
        <ele>1035.7724609375</ele>
        <time>2020-08-23T09:47:15.778Z</time>
      </trkpt>
      <trkpt lat="40.25529" lon="-6.746010000000001">
        <ele>1034.584716796875</ele>
        <time>2020-08-23T09:47:20.023Z</time>
      </trkpt>
      <trkpt lat="40.2548" lon="-6.745950000000001">
        <ele>1049.5303955078125</ele>
        <time>2020-08-23T09:47:24.284Z</time>
      </trkpt>
      <trkpt lat="40.254250000000006" lon="-6.74612">
        <ele>1068.1632080078125</ele>
        <time>2020-08-23T09:47:28.564Z</time>
      </trkpt>
      <trkpt lat="40.25357" lon="-6.74685">
        <ele>1089.318115234375</ele>
        <time>2020-08-23T09:47:32.873Z</time>
      </trkpt>
      <trkpt lat="40.25334" lon="-6.747240000000001">
        <ele>1094.0333251953125</ele>
        <time>2020-08-23T09:47:37.195Z</time>
      </trkpt>
      <trkpt lat="40.25309" lon="-6.74718">
        <ele>1097.4925537109375</ele>
        <time>2020-08-23T09:47:41.525Z</time>
      </trkpt>
      <trkpt lat="40.25269" lon="-6.7468900000000005">
        <ele>1102.7127685546875</ele>
        <time>2020-08-23T09:47:45.871Z</time>
      </trkpt>
      <trkpt lat="40.25235" lon="-6.747260000000001">
        <ele>1108.495849609375</ele>
        <time>2020-08-23T09:47:50.231Z</time>
      </trkpt>
      <trkpt lat="40.25231" lon="-6.747490000000001">
        <ele>1110.040771484375</ele>
        <time>2020-08-23T09:47:54.598Z</time>
      </trkpt>
      <trkpt lat="40.252030000000005" lon="-6.747960000000001">
        <ele>1116.8916015625</ele>
        <time>2020-08-23T09:47:58.980Z</time>
      </trkpt>
      <trkpt lat="40.251720000000006" lon="-6.7488600000000005">
        <ele>1132.1278076171875</ele>
        <time>2020-08-23T09:48:03.387Z</time>
      </trkpt>
      <trkpt lat="40.25169" lon="-6.74915">
        <ele>1136.1470947265625</ele>
        <time>2020-08-23T09:48:07.801Z</time>
      </trkpt>
      <trkpt lat="40.25142" lon="-6.749350000000001">
        <ele>1143.4058837890625</ele>
        <time>2020-08-23T09:48:12.226Z</time>
      </trkpt>
      <trkpt lat="40.251070000000006" lon="-6.750100000000001">
        <ele>1158.4169921875</ele>
        <time>2020-08-23T09:48:16.673Z</time>
      </trkpt>
      <trkpt lat="40.25095" lon="-6.750140000000001">
        <ele>1160.84033203125</ele>
        <time>2020-08-23T09:48:21.124Z</time>
      </trkpt>
      <trkpt lat="40.25117" lon="-6.75112">
        <ele>1163.831298828125</ele>
        <time>2020-08-23T09:48:25.601Z</time>
      </trkpt>
      <trkpt lat="40.25106" lon="-6.751600000000001">
        <ele>1170.6875</ele>
        <time>2020-08-23T09:48:30.091Z</time>
      </trkpt>
      <trkpt lat="40.250530000000005" lon="-6.752000000000001">
        <ele>1187.232666015625</ele>
        <time>2020-08-23T09:48:34.601Z</time>
      </trkpt>
      <trkpt lat="40.250350000000005" lon="-6.75201">
        <ele>1191.4654541015625</ele>
        <time>2020-08-23T09:48:39.117Z</time>
      </trkpt>
      <trkpt lat="40.25009" lon="-6.752420000000001">
        <ele>1198.19580078125</ele>
        <time>2020-08-23T09:48:43.647Z</time>
      </trkpt>
      <trkpt lat="40.24987" lon="-6.75255">
        <ele>1201.7471923828125</ele>
        <time>2020-08-23T09:48:48.185Z</time>
      </trkpt>
      <trkpt lat="40.24942" lon="-6.75267">
        <ele>1210.061767578125</ele>
        <time>2020-08-23T09:48:52.738Z</time>
      </trkpt>
      <trkpt lat="40.24916" lon="-6.752890000000001">
        <ele>1213.7811279296875</ele>
        <time>2020-08-23T09:48:57.302Z</time>
      </trkpt>
      <trkpt lat="40.248850000000004" lon="-6.75302">
        <ele>1218.231201171875</ele>
        <time>2020-08-23T09:49:01.877Z</time>
      </trkpt>
      <trkpt lat="40.2488" lon="-6.75321">
        <ele>1218.8316650390625</ele>
        <time>2020-08-23T09:49:06.457Z</time>
      </trkpt>
      <trkpt lat="40.247420000000005" lon="-6.7548200000000005">
        <ele>1262.9383544921875</ele>
        <time>2020-08-23T09:49:11.098Z</time>
      </trkpt>
      <trkpt lat="40.24717981605628" lon="-6.755280352556243">
        <ele>1269.7176513671875</ele>
        <time>2020-08-23T09:49:15.754Z</time>
      </trkpt>
      <trkpt lat="40.24718" lon="-6.755280000000001">
        <ele>1269.712646484375</ele>
        <time>2020-08-23T09:49:20.410Z</time>
      </trkpt>
      <trkpt lat="40.24618" lon="-6.75579">
        <ele>1300.1983642578125</ele>
        <time>2020-08-23T09:49:25.101Z</time>
      </trkpt>
      <trkpt lat="40.245960000000004" lon="-6.75619">
        <ele>1304.0389404296875</ele>
        <time>2020-08-23T09:49:29.805Z</time>
      </trkpt>
      <trkpt lat="40.24557" lon="-6.75626">
        <ele>1312.3043212890625</ele>
        <time>2020-08-23T09:49:34.522Z</time>
      </trkpt>
      <trkpt lat="40.24533" lon="-6.756460000000001">
        <ele>1317.2569580078125</ele>
        <time>2020-08-23T09:49:39.249Z</time>
      </trkpt>
      <trkpt lat="40.24515" lon="-6.75666">
        <ele>1320.062744140625</ele>
        <time>2020-08-23T09:49:43.983Z</time>
      </trkpt>
      <trkpt lat="40.24494000000001" lon="-6.75684">
        <ele>1322.7982177734375</ele>
        <time>2020-08-23T09:49:48.726Z</time>
      </trkpt>
      <trkpt lat="40.244930000000004" lon="-6.756850000000001">
        <ele>1322.918212890625</ele>
        <time>2020-08-23T09:49:53.469Z</time>
      </trkpt>
      <trkpt lat="40.24477" lon="-6.7568600000000005">
        <ele>1325.917724609375</ele>
        <time>2020-08-23T09:49:58.218Z</time>
      </trkpt>
      <trkpt lat="40.244550000000004" lon="-6.75682">
        <ele>1330.072021484375</ele>
        <time>2020-08-23T09:50:02.974Z</time>
      </trkpt>
      <trkpt lat="40.24438000000001" lon="-6.756390000000001">
        <ele>1333.78759765625</ele>
        <time>2020-08-23T09:50:07.742Z</time>
      </trkpt>
      <trkpt lat="40.24427" lon="-6.75635">
        <ele>1335.1793212890625</ele>
        <time>2020-08-23T09:50:12.514Z</time>
      </trkpt>
      <trkpt lat="40.24389" lon="-6.75647">
        <ele>1341.226318359375</ele>
        <time>2020-08-23T09:50:17.299Z</time>
      </trkpt>
      <trkpt lat="40.243770000000005" lon="-6.75649">
        <ele>1343.3260498046875</ele>
        <time>2020-08-23T09:50:22.088Z</time>
      </trkpt>
      <trkpt lat="40.243680000000005" lon="-6.7563200000000005">
        <ele>1344.86181640625</ele>
        <time>2020-08-23T09:50:26.882Z</time>
      </trkpt>
      <trkpt lat="40.24356" lon="-6.7563200000000005">
        <ele>1347.453369140625</ele>
        <time>2020-08-23T09:50:31.680Z</time>
      </trkpt>
      <trkpt lat="40.24336" lon="-6.75637">
        <ele>1351.8927001953125</ele>
        <time>2020-08-23T09:50:36.485Z</time>
      </trkpt>
      <trkpt lat="40.2432" lon="-6.75654">
        <ele>1355.7559814453125</ele>
        <time>2020-08-23T09:50:41.297Z</time>
      </trkpt>
      <trkpt lat="40.24277" lon="-6.75642">
        <ele>1365.419677734375</ele>
        <time>2020-08-23T09:50:46.124Z</time>
      </trkpt>
      <trkpt lat="40.24235" lon="-6.75661">
        <ele>1374.116455078125</ele>
        <time>2020-08-23T09:50:50.966Z</time>
      </trkpt>
      <trkpt lat="40.24215" lon="-6.75661">
        <ele>1378.67578125</ele>
        <time>2020-08-23T09:50:55.814Z</time>
      </trkpt>
      <trkpt lat="40.24146" lon="-6.75656">
        <ele>1398.1527099609375</ele>
        <time>2020-08-23T09:51:00.685Z</time>
      </trkpt>
      <trkpt lat="40.241220000000006" lon="-6.7565100000000005">
        <ele>1404.3603515625</ele>
        <time>2020-08-23T09:51:05.564Z</time>
      </trkpt>
      <trkpt lat="40.2411" lon="-6.756620000000001">
        <ele>1406.792236328125</ele>
        <time>2020-08-23T09:51:10.448Z</time>
      </trkpt>
      <trkpt lat="40.24072" lon="-6.7559000000000005">
        <ele>1413.0948486328125</ele>
        <time>2020-08-23T09:51:15.355Z</time>
      </trkpt>
      <trkpt lat="40.2406" lon="-6.75581">
        <ele>1415.3265380859375</ele>
        <time>2020-08-23T09:51:20.266Z</time>
      </trkpt>
      <trkpt lat="40.240460000000006" lon="-6.75588">
        <ele>1418.3499755859375</ele>
        <time>2020-08-23T09:51:25.182Z</time>
      </trkpt>
      <trkpt lat="40.24011" lon="-6.75588">
        <ele>1426.349853515625</ele>
        <time>2020-08-23T09:51:30.110Z</time>
      </trkpt>
      <trkpt lat="40.24011" lon="-6.75574">
        <ele>1427.693603515625</ele>
        <time>2020-08-23T09:51:35.041Z</time>
      </trkpt>
      <trkpt lat="40.23987" lon="-6.75576">
        <ele>1434.4124755859375</ele>
        <time>2020-08-23T09:51:39.980Z</time>
      </trkpt>
      <trkpt lat="40.239650000000005" lon="-6.75567">
        <ele>1440.768310546875</ele>
        <time>2020-08-23T09:51:44.927Z</time>
      </trkpt>
      <trkpt lat="40.239380000000004" lon="-6.75562">
        <ele>1447.7890625</ele>
        <time>2020-08-23T09:51:49.883Z</time>
      </trkpt>
      <trkpt lat="40.238960000000006" lon="-6.75558">
        <ele>1458.5872802734375</ele>
        <time>2020-08-23T09:51:54.853Z</time>
      </trkpt>
      <trkpt lat="40.238890000000005" lon="-6.75539">
        <ele>1460.3804931640625</ele>
        <time>2020-08-23T09:51:59.829Z</time>
      </trkpt>
      <trkpt lat="40.238730000000004" lon="-6.75534">
        <ele>1464.350341796875</ele>
        <time>2020-08-23T09:52:04.810Z</time>
      </trkpt>
      <trkpt lat="40.23865" lon="-6.755560000000001">
        <ele>1465.670166015625</ele>
        <time>2020-08-23T09:52:09.797Z</time>
      </trkpt>
      <trkpt lat="40.238240000000005" lon="-6.755660000000001">
        <ele>1471.201171875</ele>
        <time>2020-08-23T09:52:14.798Z</time>
      </trkpt>
      <trkpt lat="40.23783" lon="-6.7561800000000005">
        <ele>1467.195556640625</ele>
        <time>2020-08-23T09:52:19.818Z</time>
      </trkpt>
      <trkpt lat="40.23758" lon="-6.756240000000001">
        <ele>1465.35986328125</ele>
        <time>2020-08-23T09:52:24.847Z</time>
      </trkpt>
      <trkpt lat="40.23734" lon="-6.75666">
        <ele>1458.6510009765625</ele>
        <time>2020-08-23T09:52:29.889Z</time>
      </trkpt>
      <trkpt lat="40.23653" lon="-6.756950000000001">
        <ele>1455.8408203125</ele>
        <time>2020-08-23T09:52:34.959Z</time>
      </trkpt>
      <trkpt lat="40.236380000000004" lon="-6.75708">
        <ele>1455.3968505859375</ele>
        <time>2020-08-23T09:52:40.035Z</time>
      </trkpt>
      <trkpt lat="40.235690000000005" lon="-6.75734">
        <ele>1452.4913330078125</ele>
        <time>2020-08-23T09:52:45.135Z</time>
      </trkpt>
      <trkpt lat="40.2355" lon="-6.75752">
        <ele>1450.5028076171875</ele>
        <time>2020-08-23T09:52:50.243Z</time>
      </trkpt>
      <trkpt lat="40.2349" lon="-6.757860000000001">
        <ele>1440.731201171875</ele>
        <time>2020-08-23T09:52:55.373Z</time>
      </trkpt>
      <trkpt lat="40.23458" lon="-6.75799">
        <ele>1434.74951171875</ele>
        <time>2020-08-23T09:53:00.514Z</time>
      </trkpt>
      <trkpt lat="40.23443" lon="-6.757910000000001">
        <ele>1432.841796875</ele>
        <time>2020-08-23T09:53:05.660Z</time>
      </trkpt>
      <trkpt lat="40.234280000000005" lon="-6.75802">
        <ele>1431.6180419921875</ele>
        <time>2020-08-23T09:53:10.812Z</time>
      </trkpt>
      <trkpt lat="40.23405" lon="-6.75839">
        <ele>1428.5145263671875</ele>
        <time>2020-08-23T09:53:15.976Z</time>
      </trkpt>
      <trkpt lat="40.23406000000001" lon="-6.758520000000001">
        <ele>1427.686767578125</ele>
        <time>2020-08-23T09:53:21.143Z</time>
      </trkpt>
      <trkpt lat="40.23406000000001" lon="-6.7583400000000005">
        <ele>1428.9825439453125</ele>
        <time>2020-08-23T09:53:26.315Z</time>
      </trkpt>
      <trkpt lat="40.23402" lon="-6.75851">
        <ele>1427.3267822265625</ele>
        <time>2020-08-23T09:53:31.491Z</time>
      </trkpt>
      <trkpt lat="40.23377" lon="-6.759100000000001">
        <ele>1420.0126953125</ele>
        <time>2020-08-23T09:53:36.685Z</time>
      </trkpt>
      <trkpt lat="40.2336" lon="-6.759290000000001">
        <ele>1415.08154296875</ele>
        <time>2020-08-23T09:53:41.886Z</time>
      </trkpt>
      <trkpt lat="40.233380000000004" lon="-6.759320000000001">
        <ele>1410.815185546875</ele>
        <time>2020-08-23T09:53:47.094Z</time>
      </trkpt>
      <trkpt lat="40.23308" lon="-6.7595600000000005">
        <ele>1403.0404052734375</ele>
        <time>2020-08-23T09:53:52.314Z</time>
      </trkpt>
      <trkpt lat="40.23293" lon="-6.759570000000001">
        <ele>1400.10791015625</ele>
        <time>2020-08-23T09:53:57.539Z</time>
      </trkpt>
      <trkpt lat="40.23248" lon="-6.7601700000000005">
        <ele>1387.675048828125</ele>
        <time>2020-08-23T09:54:02.786Z</time>
      </trkpt>
      <trkpt lat="40.232260000000004" lon="-6.760330000000001">
        <ele>1382.755859375</ele>
        <time>2020-08-23T09:54:08.041Z</time>
      </trkpt>
      <trkpt lat="40.23203" lon="-6.76036">
        <ele>1377.661376953125</ele>
        <time>2020-08-23T09:54:13.304Z</time>
      </trkpt>
      <trkpt lat="40.23189" lon="-6.7605200000000005">
        <ele>1373.006103515625</ele>
        <time>2020-08-23T09:54:18.573Z</time>
      </trkpt>
      <trkpt lat="40.23158" lon="-6.761270000000001">
        <ele>1357.7864990234375</ele>
        <time>2020-08-23T09:54:23.864Z</time>
      </trkpt>
      <trkpt lat="40.2314" lon="-6.761400000000001">
        <ele>1351.480224609375</ele>
        <time>2020-08-23T09:54:29.162Z</time>
      </trkpt>
      <trkpt lat="40.23134" lon="-6.76161">
        <ele>1348.37939453125</ele>
        <time>2020-08-23T09:54:34.465Z</time>
      </trkpt>
      <trkpt lat="40.2312" lon="-6.7616700000000005">
        <ele>1343.041748046875</ele>
        <time>2020-08-23T09:54:39.773Z</time>
      </trkpt>
      <trkpt lat="40.23109" lon="-6.76158">
        <ele>1340.593994140625</ele>
        <time>2020-08-23T09:54:45.086Z</time>
      </trkpt>
      <trkpt lat="40.23091" lon="-6.76175">
        <ele>1333.1552734375</ele>
        <time>2020-08-23T09:54:50.406Z</time>
      </trkpt>
      <trkpt lat="40.23046" lon="-6.761900000000001">
        <ele>1317.8577880859375</ele>
        <time>2020-08-23T09:54:55.741Z</time>
      </trkpt>
      <trkpt lat="40.230360000000005" lon="-6.762060000000001">
        <ele>1313.052978515625</ele>
        <time>2020-08-23T09:55:01.082Z</time>
      </trkpt>
      <trkpt lat="40.229560000000006" lon="-6.76196">
        <ele>1292.6419677734375</ele>
        <time>2020-08-23T09:55:06.449Z</time>
      </trkpt>
      <trkpt lat="40.22932" lon="-6.76175">
        <ele>1288.7186279296875</ele>
        <time>2020-08-23T09:55:11.826Z</time>
      </trkpt>
      <trkpt lat="40.229090000000014" lon="-6.76165">
        <ele>1283.3795166015625</ele>
        <time>2020-08-23T09:55:17.211Z</time>
      </trkpt>
      <trkpt lat="40.2289" lon="-6.761410000000001">
        <ele>1281.7479248046875</ele>
        <time>2020-08-23T09:55:22.605Z</time>
      </trkpt>
      <trkpt lat="40.228640000000006" lon="-6.76125">
        <ele>1274.5313720703125</ele>
        <time>2020-08-23T09:55:28.009Z</time>
      </trkpt>
      <trkpt lat="40.22834" lon="-6.76149">
        <ele>1261.5736083984375</ele>
        <time>2020-08-23T09:55:33.424Z</time>
      </trkpt>
      <trkpt lat="40.22809" lon="-6.76144">
        <ele>1253.77490234375</ele>
        <time>2020-08-23T09:55:38.848Z</time>
      </trkpt>
      <trkpt lat="40.22798" lon="-6.761500000000001">
        <ele>1249.29443359375</ele>
        <time>2020-08-23T09:55:44.276Z</time>
      </trkpt>
      <trkpt lat="40.227790000000006" lon="-6.761290000000001">
        <ele>1244.9808349609375</ele>
        <time>2020-08-23T09:55:49.712Z</time>
      </trkpt>
      <trkpt lat="40.22764" lon="-6.761400000000001">
        <ele>1239.3778076171875</ele>
        <time>2020-08-23T09:55:55.154Z</time>
      </trkpt>
      <trkpt lat="40.22717" lon="-6.761520000000001">
        <ele>1223.7083740234375</ele>
        <time>2020-08-23T09:56:00.612Z</time>
      </trkpt>
      <trkpt lat="40.22699" lon="-6.761660000000001">
        <ele>1217.968994140625</ele>
        <time>2020-08-23T09:56:06.077Z</time>
      </trkpt>
      <trkpt lat="40.226800000000004" lon="-6.761640000000001">
        <ele>1213.0498046875</ele>
        <time>2020-08-23T09:56:11.548Z</time>
      </trkpt>
      <trkpt lat="40.226400000000005" lon="-6.761760000000001">
        <ele>1201.915771484375</ele>
        <time>2020-08-23T09:56:17.033Z</time>
      </trkpt>
      <trkpt lat="40.225970000000004" lon="-6.76186">
        <ele>1189.7041015625</ele>
        <time>2020-08-23T09:56:22.532Z</time>
      </trkpt>
      <trkpt lat="40.22587" lon="-6.7620000000000005">
        <ele>1186.272705078125</ele>
        <time>2020-08-23T09:56:28.036Z</time>
      </trkpt>
      <trkpt lat="40.22545" lon="-6.762150000000001">
        <ele>1173.8922119140625</ele>
        <time>2020-08-23T09:56:33.555Z</time>
      </trkpt>
      <trkpt lat="40.22524000000001" lon="-6.762130000000001">
        <ele>1164.917724609375</ele>
        <time>2020-08-23T09:56:39.081Z</time>
      </trkpt>
      <trkpt lat="40.22504" lon="-6.762270000000001">
        <ele>1155.6072998046875</ele>
        <time>2020-08-23T09:56:44.614Z</time>
      </trkpt>
      <trkpt lat="40.2248" lon="-6.7620000000000005">
        <ele>1146.5367431640625</ele>
        <time>2020-08-23T09:56:50.158Z</time>
      </trkpt>
      <trkpt lat="40.224430000000005" lon="-6.762130000000001">
        <ele>1129.9315185546875</ele>
        <time>2020-08-23T09:56:55.714Z</time>
      </trkpt>
      <trkpt lat="40.224320000000006" lon="-6.762010000000001">
        <ele>1125.7562255859375</ele>
        <time>2020-08-23T09:57:01.275Z</time>
      </trkpt>
      <trkpt lat="40.22426" lon="-6.76212">
        <ele>1122.63671875</ele>
        <time>2020-08-23T09:57:06.840Z</time>
      </trkpt>
      <trkpt lat="40.2239" lon="-6.76182">
        <ele>1103.1976318359375</ele>
        <time>2020-08-23T09:57:12.419Z</time>
      </trkpt>
      <trkpt lat="40.22368" lon="-6.761920000000001">
        <ele>1094.873291015625</ele>
        <time>2020-08-23T09:57:18.006Z</time>
      </trkpt>
      <trkpt lat="40.22359" lon="-6.761830000000001">
        <ele>1091.8497314453125</ele>
        <time>2020-08-23T09:57:23.596Z</time>
      </trkpt>
      <trkpt lat="40.2234303576834" lon="-6.761810044710323">
        <ele>1085.32470703125</ele>
        <time>2020-08-23T09:57:29.192Z</time>
      </trkpt>
      <trkpt lat="40.22336" lon="-6.76184">
        <ele>1082.71374511719</ele>
        <time>2020-08-23T09:39:03.000Z</time>
      </trkpt>
      <trkpt lat="40.22304" lon="-6.76184">
        <ele>1066.58837890625</ele>
        <time>2020-08-23T09:39:03.011Z</time>
      </trkpt>
      <trkpt lat="40.22255" lon="-6.76179">
        <ele>1053.4013671875</ele>
        <time>2020-08-23T09:39:03.038Z</time>
      </trkpt>
      <trkpt lat="40.22218" lon="-6.76203">
        <ele>1054.12121582031</ele>
        <time>2020-08-23T09:39:03.079Z</time>
      </trkpt>
      <trkpt lat="40.22192" lon="-6.76229">
        <ele>1054.28088378906</ele>
        <time>2020-08-23T09:39:03.131Z</time>
      </trkpt>
      <trkpt lat="40.22111" lon="-6.76329">
        <ele>1046.86584472656</ele>
        <time>2020-08-23T09:39:03.220Z</time>
      </trkpt>
      <trkpt lat="40.22067" lon="-6.76348">
        <ele>1039.03112792969</ele>
        <time>2020-08-23T09:39:03.324Z</time>
      </trkpt>
      <trkpt lat="40.2202" lon="-6.76362">
        <ele>1033.32836914062</ele>
        <time>2020-08-23T09:39:03.444Z</time>
      </trkpt>
      <trkpt lat="40.21983" lon="-6.76381">
        <ele>1031.21801757812</ele>
        <time>2020-08-23T09:39:03.578Z</time>
      </trkpt>
      <trkpt lat="40.21946" lon="-6.76393">
        <ele>1027.71508789062</ele>
        <time>2020-08-23T09:39:03.724Z</time>
      </trkpt>
      <trkpt lat="40.21904" lon="-6.76391">
        <ele>1022.43597412109</ele>
        <time>2020-08-23T09:39:03.884Z</time>
      </trkpt>
      <trkpt lat="40.21823" lon="-6.76343">
        <ele>1019.07214355469</ele>
        <time>2020-08-23T09:39:04.074Z</time>
      </trkpt>
      <trkpt lat="40.2176" lon="-6.76311">
        <ele>1020.61456298828</ele>
        <time>2020-08-23T09:39:04.286Z</time>
      </trkpt>
      <trkpt lat="40.21714" lon="-6.76292">
        <ele>1019.79907226562</ele>
        <time>2020-08-23T09:39:04.515Z</time>
      </trkpt>
      <trkpt lat="40.21612" lon="-6.76296">
        <ele>1021.20043945312</ele>
        <time>2020-08-23T09:39:04.778Z</time>
      </trkpt>
      <trkpt lat="40.21581" lon="-6.76292">
        <ele>1019.41271972656</ele>
        <time>2020-08-23T09:39:05.051Z</time>
      </trkpt>
      <trkpt lat="40.21539" lon="-6.76334">
        <ele>1023.02514648438</ele>
        <time>2020-08-23T09:39:05.342Z</time>
      </trkpt>
      <trkpt lat="40.2149" lon="-6.76409">
        <ele>1021.42254638672</ele>
        <time>2020-08-23T09:39:05.658Z</time>
      </trkpt>
      <trkpt lat="40.21436" lon="-6.76468">
        <ele>1018.14117431641</ele>
        <time>2020-08-23T09:39:05.997Z</time>
      </trkpt>
      <trkpt lat="40.21369" lon="-6.76508">
        <ele>1017.4736328125</ele>
        <time>2020-08-23T09:39:06.361Z</time>
      </trkpt>
      <trkpt lat="40.21318" lon="-6.76522">
        <ele>1018.23443603516</ele>
        <time>2020-08-23T09:39:06.742Z</time>
      </trkpt>
      <trkpt lat="40.21293" lon="-6.765">
        <ele>1017.49645996094</ele>
        <time>2020-08-23T09:39:07.133Z</time>
      </trkpt>
      <trkpt lat="40.21195" lon="-6.76538">
        <ele>1016.21887207031</ele>
        <time>2020-08-23T09:39:07.558Z</time>
      </trkpt>
      <trkpt lat="40.21142" lon="-6.76576">
        <ele>1016.36712646484</ele>
        <time>2020-08-23T09:39:08.003Z</time>
      </trkpt>
      <trkpt lat="40.21102" lon="-6.76589">
        <ele>1012.48754882812</ele>
        <time>2020-08-23T09:39:08.462Z</time>
      </trkpt>
      <trkpt lat="40.21062009026" lon="-6.76633989845">
        <ele>1011.28802490234</ele>
        <time>2020-08-23T09:39:08.939Z</time>
      </trkpt>
      <trkpt lat="40.21062" lon="-6.76634">
        <ele>1011.28771972656</ele>
        <time>2020-08-23T09:39:09.416Z</time>
      </trkpt>
      <trkpt lat="40.21031" lon="-6.76679">
        <ele>1008.36486816406</ele>
        <time>2020-08-23T09:39:09.908Z</time>
      </trkpt>
      <trkpt lat="40.2099" lon="-6.7669">
        <ele>1001.49237060547</ele>
        <time>2020-08-23T09:39:10.414Z</time>
      </trkpt>
      <trkpt lat="40.2088" lon="-6.7666">
        <ele>994.81628417969</ele>
        <time>2020-08-23T09:39:10.957Z</time>
      </trkpt>
      <trkpt lat="40.20822" lon="-6.76659">
        <ele>993.75445556641</ele>
        <time>2020-08-23T09:39:11.520Z</time>
      </trkpt>
      <trkpt lat="40.2078" lon="-6.7666">
        <ele>993.19360351562</ele>
        <time>2020-08-23T09:39:12.097Z</time>
      </trkpt>
      <trkpt lat="40.20709" lon="-6.76684">
        <ele>993.97424316406</ele>
        <time>2020-08-23T09:39:12.698Z</time>
      </trkpt>
      <trkpt lat="40.20661" lon="-6.76681">
        <ele>992.69665527344</ele>
        <time>2020-08-23T09:39:13.315Z</time>
      </trkpt>
      <trkpt lat="40.20605" lon="-6.767">
        <ele>992.87744140625</ele>
        <time>2020-08-23T09:39:13.952Z</time>
      </trkpt>
      <trkpt lat="40.20562" lon="-6.76705">
        <ele>989.96520996094</ele>
        <time>2020-08-23T09:39:14.603Z</time>
      </trkpt>
      <trkpt lat="40.20505" lon="-6.76726">
        <ele>988.36804199219</ele>
        <time>2020-08-23T09:39:15.274Z</time>
      </trkpt>
      <trkpt lat="40.20453" lon="-6.76766">
        <ele>994.26440429688</ele>
        <time>2020-08-23T09:39:15.965Z</time>
      </trkpt>
      <trkpt lat="40.20424" lon="-6.76759">
        <ele>993.25244140625</ele>
        <time>2020-08-23T09:39:16.666Z</time>
      </trkpt>
      <trkpt lat="40.20423" lon="-6.76758">
        <ele>993.14447021484</ele>
        <time>2020-08-23T09:39:17.367Z</time>
      </trkpt>
      <trkpt lat="40.20424" lon="-6.76759">
        <ele>993.25244140625</ele>
        <time>2020-08-23T09:39:18.068Z</time>
      </trkpt>
      <trkpt lat="40.20411" lon="-6.76705">
        <ele>982.42895507812</ele>
        <time>2020-08-23T09:39:18.784Z</time>
      </trkpt>
      <trkpt lat="40.20394" lon="-6.76651">
        <ele>980.10620117188</ele>
        <time>2020-08-23T09:39:19.515Z</time>
      </trkpt>
      <trkpt lat="40.20398" lon="-6.76541">
        <ele>966.82830810547</ele>
        <time>2020-08-23T09:39:20.274Z</time>
      </trkpt>
      <trkpt lat="40.20395" lon="-6.76355">
        <ele>952.49523925781</ele>
        <time>2020-08-23T09:39:21.080Z</time>
      </trkpt>
      <trkpt lat="40.20359" lon="-6.76343">
        <ele>959.67437744141</ele>
        <time>2020-08-23T09:39:21.899Z</time>
      </trkpt>
      <trkpt lat="40.20321" lon="-6.76343">
        <ele>962.138671875</ele>
        <time>2020-08-23T09:39:22.730Z</time>
      </trkpt>
      <trkpt lat="40.20306" lon="-6.76289">
        <ele>954.73614501953</ele>
        <time>2020-08-23T09:39:23.576Z</time>
      </trkpt>
      <trkpt lat="40.20253" lon="-6.7625">
        <ele>954.08465576172</ele>
        <time>2020-08-23T09:39:24.442Z</time>
      </trkpt>
      <trkpt lat="40.20238" lon="-6.76175">
        <ele>945.63250732422</ele>
        <time>2020-08-23T09:39:25.328Z</time>
      </trkpt>
      <trkpt lat="40.20213" lon="-6.76099">
        <ele>937.41912841797</ele>
        <time>2020-08-23T09:39:26.235Z</time>
      </trkpt>
      <trkpt lat="40.2019" lon="-6.76017">
        <ele>927.33282470703</ele>
        <time>2020-08-23T09:39:27.165Z</time>
      </trkpt>
      <trkpt lat="40.20172" lon="-6.75991">
        <ele>927.10125732422</ele>
        <time>2020-08-23T09:39:28.104Z</time>
      </trkpt>
      <trkpt lat="40.20132065767" lon="-6.75973029595">
        <ele>933.18438720703</ele>
        <time>2020-08-23T09:39:29.057Z</time>
      </trkpt>
      <trkpt lat="40.20132" lon="-6.75973">
        <ele>933.19329833984</ele>
        <time>2020-08-23T09:39:30.010Z</time>
      </trkpt>
      <trkpt lat="40.20119" lon="-6.75954">
        <ele>931.04315185547</ele>
        <time>2020-08-23T09:39:30.969Z</time>
      </trkpt>
      <trkpt lat="40.20119" lon="-6.75865">
        <ele>915.78814697266</ele>
        <time>2020-08-23T09:39:31.951Z</time>
      </trkpt>
      <trkpt lat="40.20087" lon="-6.75794">
        <ele>913.400390625</ele>
        <time>2020-08-23T09:39:32.954Z</time>
      </trkpt>
      <trkpt lat="40.20057" lon="-6.75666">
        <ele>905.53381347656</ele>
        <time>2020-08-23T09:39:33.991Z</time>
      </trkpt>
      <trkpt lat="40.20004" lon="-6.75618">
        <ele>906.51812744141</ele>
        <time>2020-08-23T09:39:35.050Z</time>
      </trkpt>
      <trkpt lat="40.19937" lon="-6.75588">
        <ele>902.02239990234</ele>
        <time>2020-08-23T09:39:36.132Z</time>
      </trkpt>
      <trkpt lat="40.19777" lon="-6.75569">
        <ele>900.70745849609</ele>
        <time>2020-08-23T09:39:37.268Z</time>
      </trkpt>
      <trkpt lat="40.19748" lon="-6.7555">
        <ele>896.86810302734</ele>
        <time>2020-08-23T09:39:38.415Z</time>
      </trkpt>
      <trkpt lat="40.19749" lon="-6.7555">
        <ele>896.79614257812</ele>
        <time>2020-08-23T09:39:39.562Z</time>
      </trkpt>
      <trkpt lat="40.19731" lon="-6.75487">
        <ele>886.15588378906</ele>
        <time>2020-08-23T09:39:40.726Z</time>
      </trkpt>
      <trkpt lat="40.19742" lon="-6.75374">
        <ele>868.72027587891</ele>
        <time>2020-08-23T09:39:41.919Z</time>
      </trkpt>
      <trkpt lat="40.19743" lon="-6.75314">
        <ele>865.35064697266</ele>
        <time>2020-08-23T09:39:43.127Z</time>
      </trkpt>
      <trkpt lat="40.19731" lon="-6.75288">
        <ele>865.58599853516</ele>
        <time>2020-08-23T09:39:44.343Z</time>
      </trkpt>
      <trkpt lat="40.19689" lon="-6.75273">
        <ele>870.86083984375</ele>
        <time>2020-08-23T09:39:45.574Z</time>
      </trkpt>
      <trkpt lat="40.19673" lon="-6.75255">
        <ele>869.69189453125</ele>
        <time>2020-08-23T09:39:46.812Z</time>
      </trkpt>
      <trkpt lat="40.19682" lon="-6.75196">
        <ele>853.52465820312</ele>
        <time>2020-08-23T09:39:48.065Z</time>
      </trkpt>
      <trkpt lat="40.19672" lon="-6.75168">
        <ele>849.69702148438</ele>
        <time>2020-08-23T09:39:49.326Z</time>
      </trkpt>
      <trkpt lat="40.1963" lon="-6.75149">
        <ele>855.37640380859</ele>
        <time>2020-08-23T09:39:50.602Z</time>
      </trkpt>
      <trkpt lat="40.19602" lon="-6.75119">
        <ele>855.71710205078</ele>
        <time>2020-08-23T09:39:51.890Z</time>
      </trkpt>
      <trkpt lat="40.19576" lon="-6.75102">
        <ele>857.65472412109</ele>
        <time>2020-08-23T09:39:53.188Z</time>
      </trkpt>
      <trkpt lat="40.1954" lon="-6.75102">
        <ele>865.62365722656</ele>
        <time>2020-08-23T09:39:54.498Z</time>
      </trkpt>
      <trkpt lat="40.1954" lon="-6.75058">
        <ele>854.67712402344</ele>
        <time>2020-08-23T09:39:55.819Z</time>
      </trkpt>
      <trkpt lat="40.19554" lon="-6.75022">
        <ele>845.19415283203</ele>
        <time>2020-08-23T09:39:57.150Z</time>
      </trkpt>
      <trkpt lat="40.19593" lon="-6.74962">
        <ele>824.296875</ele>
        <time>2020-08-23T09:39:58.501Z</time>
      </trkpt>
      <trkpt lat="40.19602" lon="-6.74929">
        <ele>818.67504882812</ele>
        <time>2020-08-23T09:39:59.861Z</time>
      </trkpt>
      <trkpt lat="40.1959" lon="-6.74865">
        <ele>825.87896728516</ele>
        <time>2020-08-23T09:40:01.238Z</time>
      </trkpt>
      <trkpt lat="40.19655" lon="-6.7475">
        <ele>808.80603027344</ele>
        <time>2020-08-23T09:40:02.652Z</time>
      </trkpt>
      <trkpt lat="40.1970404211" lon="-6.74651915779">
        <ele>801.95739746094</ele>
        <time>2020-08-23T09:40:04.095Z</time>
      </trkpt>
      <trkpt lat="40.19704" lon="-6.74652">
        <ele>801.96801757812</ele>
        <time>2020-08-23T09:40:05.538Z</time>
      </trkpt>
      <trkpt lat="40.19718" lon="-6.74588">
        <ele>800.98138427734</ele>
        <time>2020-08-23T09:40:06.998Z</time>
      </trkpt>
      <trkpt lat="40.19717" lon="-6.74546">
        <ele>800.70373535156</ele>
        <time>2020-08-23T09:40:08.469Z</time>
      </trkpt>
      <trkpt lat="40.19717" lon="-6.74544">
        <ele>800.53576660156</ele>
        <time>2020-08-23T09:40:09.941Z</time>
      </trkpt>
      <trkpt lat="40.19655" lon="-6.74453">
        <ele>804.13116455078</ele>
        <time>2020-08-23T09:40:11.444Z</time>
      </trkpt>
      <trkpt lat="40.19612" lon="-6.74415">
        <ele>803.85296630859</ele>
        <time>2020-08-23T09:40:12.964Z</time>
      </trkpt>
      <trkpt lat="40.19544" lon="-6.74335">
        <ele>792.4599609375</ele>
        <time>2020-08-23T09:40:14.515Z</time>
      </trkpt>
      <trkpt lat="40.19484" lon="-6.74342">
        <ele>791.77575683594</ele>
        <time>2020-08-23T09:40:16.086Z</time>
      </trkpt>
      <trkpt lat="40.19455" lon="-6.74366">
        <ele>797.59228515625</ele>
        <time>2020-08-23T09:40:17.668Z</time>
      </trkpt>
      <trkpt lat="40.19403" lon="-6.74366">
        <ele>792.60107421875</ele>
        <time>2020-08-23T09:40:19.267Z</time>
      </trkpt>
      <trkpt lat="40.19365" lon="-6.74382">
        <ele>794.32879638672</ele>
        <time>2020-08-23T09:40:20.880Z</time>
      </trkpt>
      <trkpt lat="40.19342" lon="-6.74383">
        <ele>792.45715332031</ele>
        <time>2020-08-23T09:40:22.500Z</time>
      </trkpt>
      <trkpt lat="40.1929" lon="-6.74351">
        <ele>777.12817382812</ele>
        <time>2020-08-23T09:40:24.140Z</time>
      </trkpt>
      <trkpt lat="40.19236" lon="-6.74351">
        <ele>776.48028564453</ele>
        <time>2020-08-23T09:40:25.798Z</time>
      </trkpt>
      <trkpt lat="40.19186" lon="-6.74345">
        <ele>773.2958984375</ele>
        <time>2020-08-23T09:40:27.472Z</time>
      </trkpt>
      <trkpt lat="40.19144" lon="-6.74345">
        <ele>773.2958984375</ele>
        <time>2020-08-23T09:40:29.160Z</time>
      </trkpt>
      <trkpt lat="40.19135" lon="-6.7433">
        <ele>768.79669189453</ele>
        <time>2020-08-23T09:40:30.853Z</time>
      </trkpt>
      <trkpt lat="40.19135" lon="-6.74329">
        <ele>768.49670410156</ele>
        <time>2020-08-23T09:40:32.546Z</time>
      </trkpt>
      <trkpt lat="40.19135" lon="-6.7433">
        <ele>768.79669189453</ele>
        <time>2020-08-23T09:40:34.240Z</time>
      </trkpt>
      <trkpt lat="40.19147" lon="-6.74293">
        <ele>760.54443359375</ele>
        <time>2020-08-23T09:40:35.944Z</time>
      </trkpt>
      <trkpt lat="40.19216" lon="-6.74166">
        <ele>738.71221923828</ele>
        <time>2020-08-23T09:40:37.688Z</time>
      </trkpt>
      <trkpt lat="40.19243" lon="-6.74124">
        <ele>730.25384521484</ele>
        <time>2020-08-23T09:40:39.446Z</time>
      </trkpt>
      <trkpt lat="40.1924" lon="-6.74009">
        <ele>723.18481445312</ele>
        <time>2020-08-23T09:40:41.233Z</time>
      </trkpt>
      <trkpt lat="40.19251" lon="-6.73913">
        <ele>718.90124511719</ele>
        <time>2020-08-23T09:40:43.045Z</time>
      </trkpt>
      <trkpt lat="40.1928" lon="-6.73814">
        <ele>712.06195068359</ele>
        <time>2020-08-23T09:40:44.884Z</time>
      </trkpt>
      <trkpt lat="40.19318" lon="-6.7373">
        <ele>702.58380126953</ele>
        <time>2020-08-23T09:40:46.748Z</time>
      </trkpt>
      <trkpt lat="40.19333030725" lon="-6.73558649702">
        <ele>693.11102294922</ele>
        <time>2020-08-23T09:40:48.656Z</time>
      </trkpt>
      <trkpt lat="40.19333" lon="-6.73559">
        <ele>693.13372802734</ele>
        <time>2020-08-23T09:40:50.564Z</time>
      </trkpt>
      <trkpt lat="40.19357" lon="-6.73519">
        <ele>686.60681152344</ele>
        <time>2020-08-23T09:40:52.485Z</time>
      </trkpt>
      <trkpt lat="40.19372" lon="-6.73458">
        <ele>681.80084228516</ele>
        <time>2020-08-23T09:40:54.422Z</time>
      </trkpt>
      <trkpt lat="40.19346" lon="-6.73375">
        <ele>686.78143310547</ele>
        <time>2020-08-23T09:40:56.382Z</time>
      </trkpt>
      <trkpt lat="40.19379" lon="-6.73331">
        <ele>677.94781494141</ele>
        <time>2020-08-23T09:40:58.358Z</time>
      </trkpt>
      <trkpt lat="40.19391" lon="-6.7327">
        <ele>674.33087158203</ele>
        <time>2020-08-23T09:41:00.350Z</time>
      </trkpt>
      <trkpt lat="40.19391" lon="-6.73204">
        <ele>673.78015136719</ele>
        <time>2020-08-23T09:41:02.359Z</time>
      </trkpt>
      <trkpt lat="40.19361" lon="-6.73167">
        <ele>683.63751220703</ele>
        <time>2020-08-23T09:41:04.382Z</time>
      </trkpt>
      <trkpt lat="40.1935" lon="-6.73085">
        <ele>683.2001953125</ele>
        <time>2020-08-23T09:41:06.426Z</time>
      </trkpt>
      <trkpt lat="40.19388" lon="-6.72913">
        <ele>670.31781005859</ele>
        <time>2020-08-23T09:41:08.516Z</time>
      </trkpt>
      <trkpt lat="40.19424" lon="-6.72834">
        <ele>662.86083984375</ele>
        <time>2020-08-23T09:41:10.629Z</time>
      </trkpt>
      <trkpt lat="40.19427" lon="-6.72777">
        <ele>658.13562011719</ele>
        <time>2020-08-23T09:41:12.757Z</time>
      </trkpt>
      <trkpt lat="40.19395" lon="-6.72704">
        <ele>663.99816894531</ele>
        <time>2020-08-23T09:41:14.906Z</time>
      </trkpt>
      <trkpt lat="40.19431" lon="-6.72597">
        <ele>649.76495361328</ele>
        <time>2020-08-23T09:41:17.085Z</time>
      </trkpt>
      <trkpt lat="40.19555" lon="-6.72331">
        <ele>611.95697021484</ele>
        <time>2020-08-23T09:41:19.344Z</time>
      </trkpt>
      <trkpt lat="40.19572" lon="-6.72263">
        <ele>608.470703125</ele>
        <time>2020-08-23T09:41:21.621Z</time>
      </trkpt>
      <trkpt lat="40.19613" lon="-6.722">
        <ele>599.30413818359</ele>
        <time>2020-08-23T09:41:23.919Z</time>
      </trkpt>
      <trkpt lat="40.19626" lon="-6.72141">
        <ele>595.32397460938</ele>
        <time>2020-08-23T09:41:26.233Z</time>
      </trkpt>
      <trkpt lat="40.19613" lon="-6.72022">
        <ele>584.09381103516</ele>
        <time>2020-08-23T09:41:28.577Z</time>
      </trkpt>
      <trkpt lat="40.19566" lon="-6.71996">
        <ele>581.34002685547</ele>
        <time>2020-08-23T09:41:30.938Z</time>
      </trkpt>
      <trkpt lat="40.19549" lon="-6.71965">
        <ele>574.53765869141</ele>
        <time>2020-08-23T09:41:33.309Z</time>
      </trkpt>
      <trkpt lat="40.19555005835" lon="-6.71934970825">
        <ele>567.04364013672</ele>
        <time>2020-08-23T09:41:35.688Z</time>
      </trkpt>
      <trkpt lat="40.19555" lon="-6.71935">
        <ele>567.05090332031</ele>
        <time>2020-08-23T09:41:38.067Z</time>
      </trkpt>
      <trkpt lat="40.19556" lon="-6.71933">
        <ele>566.52301025391</ele>
        <time>2020-08-23T09:41:40.447Z</time>
      </trkpt>
      <trkpt lat="40.19608" lon="-6.719">
        <ele>556.32513427734</ele>
        <time>2020-08-23T09:41:42.846Z</time>
      </trkpt>
      <trkpt lat="40.19616" lon="-6.71851">
        <ele>547.12261962891</ele>
        <time>2020-08-23T09:41:45.258Z</time>
      </trkpt>
      <trkpt lat="40.1964" lon="-6.71827">
        <ele>540.66888427734</ele>
        <time>2020-08-23T09:41:47.680Z</time>
      </trkpt>
      <trkpt lat="40.19641" lon="-6.71801">
        <ele>536.15740966797</ele>
        <time>2020-08-23T09:41:50.108Z</time>
      </trkpt>
      <trkpt lat="40.19608" lon="-6.7175">
        <ele>527.17260742188</ele>
        <time>2020-08-23T09:41:52.553Z</time>
      </trkpt>
      <trkpt lat="40.19749" lon="-6.71762">
        <ele>521.16387939453</ele>
        <time>2020-08-23T09:41:55.046Z</time>
      </trkpt>
      <trkpt lat="40.19774" lon="-6.71736">
        <ele>517.20812988281</ele>
        <time>2020-08-23T09:41:57.549Z</time>
      </trkpt>
      <trkpt lat="40.19766" lon="-6.71699">
        <ele>515.52838134766</ele>
        <time>2020-08-23T09:42:00.062Z</time>
      </trkpt>
      <trkpt lat="40.19769" lon="-6.71682">
        <ele>514.67651367188</ele>
        <time>2020-08-23T09:42:02.579Z</time>
      </trkpt>
      <trkpt lat="40.19779" lon="-6.71668">
        <ele>513.79113769531</ele>
        <time>2020-08-23T09:42:05.101Z</time>
      </trkpt>
      <trkpt lat="40.19794" lon="-6.71652">
        <ele>512.74572753906</ele>
        <time>2020-08-23T09:42:07.630Z</time>
      </trkpt>
      <trkpt lat="40.19803" lon="-6.71635">
        <ele>510.3576965332</ele>
        <time>2020-08-23T09:42:10.164Z</time>
      </trkpt>
      <trkpt lat="40.19812" lon="-6.71626">
        <ele>508.95394897461</ele>
        <time>2020-08-23T09:42:12.702Z</time>
      </trkpt>
      <trkpt lat="40.19831" lon="-6.71625">
        <ele>508.00894165039</ele>
        <time>2020-08-23T09:42:15.246Z</time>
      </trkpt>
      <trkpt lat="40.19896" lon="-6.7163">
        <ele>504.38525390625</ele>
        <time>2020-08-23T09:42:17.812Z</time>
      </trkpt>
      <trkpt lat="40.19911" lon="-6.71626">
        <ele>503.32604980469</ele>
        <time>2020-08-23T09:42:20.383Z</time>
      </trkpt>
      <trkpt lat="40.19921" lon="-6.71617">
        <ele>502.17425537109</ele>
        <time>2020-08-23T09:42:22.958Z</time>
      </trkpt>
      <trkpt lat="40.19937" lon="-6.71635">
        <ele>501.88629150391</ele>
        <time>2020-08-23T09:42:25.540Z</time>
      </trkpt>
      <trkpt lat="40.19955" lon="-6.7166">
        <ele>501.55868530273</ele>
        <time>2020-08-23T09:42:28.131Z</time>
      </trkpt>
      <trkpt lat="40.19966" lon="-6.71666">
        <ele>502.0046081543</ele>
        <time>2020-08-23T09:42:30.726Z</time>
      </trkpt>
      <trkpt lat="40.19975" lon="-6.71661">
        <ele>502.24456787109</ele>
        <time>2020-08-23T09:42:33.324Z</time>
      </trkpt>
      <trkpt lat="40.20006" lon="-6.71637">
        <ele>502.86325073242</ele>
        <time>2020-08-23T09:42:35.934Z</time>
      </trkpt>
      <trkpt lat="40.20053" lon="-6.71612">
        <ele>504.10076904297</ele>
        <time>2020-08-23T09:42:38.561Z</time>
      </trkpt>
      <trkpt lat="40.20067" lon="-6.71595">
        <ele>503.45288085938</ele>
        <time>2020-08-23T09:42:41.194Z</time>
      </trkpt>
      <trkpt lat="40.20085" lon="-6.71578">
        <ele>502.85296630859</ele>
        <time>2020-08-23T09:42:43.835Z</time>
      </trkpt>
      <trkpt lat="40.20092" lon="-6.71575">
        <ele>502.79296875</ele>
        <time>2020-08-23T09:42:46.478Z</time>
      </trkpt>
      <trkpt lat="40.20141" lon="-6.71591">
        <ele>505.75164794922</ele>
        <time>2020-08-23T09:42:49.138Z</time>
      </trkpt>
      <trkpt lat="40.20151" lon="-6.71595">
        <ele>506.73547363281</ele>
        <time>2020-08-23T09:42:51.802Z</time>
      </trkpt>
      <trkpt lat="40.20215" lon="-6.71599">
        <ele>510.07971191406</ele>
        <time>2020-08-23T09:42:54.487Z</time>
      </trkpt>
      <trkpt lat="40.2023" lon="-6.71595">
        <ele>511.45950317383</ele>
        <time>2020-08-23T09:42:57.177Z</time>
      </trkpt>
      <trkpt lat="40.20288" lon="-6.71574">
        <ele>516.46264648438</ele>
        <time>2020-08-23T09:42:59.887Z</time>
      </trkpt>
      <trkpt lat="40.20327" lon="-6.71571">
        <ele>517.80352783203</ele>
        <time>2020-08-23T09:43:02.610Z</time>
      </trkpt>
      <trkpt lat="40.20359" lon="-6.71573">
        <ele>518.66741943359</ele>
        <time>2020-08-23T09:43:05.344Z</time>
      </trkpt>
      <trkpt lat="40.20376" lon="-6.71582">
        <ele>519.50726318359</ele>
        <time>2020-08-23T09:43:08.084Z</time>
      </trkpt>
      <trkpt lat="40.20427" lon="-6.7162">
        <ele>522.37469482422</ele>
        <time>2020-08-23T09:43:10.843Z</time>
      </trkpt>
      <trkpt lat="40.20437" lon="-6.71622">
        <ele>522.56665039062</ele>
        <time>2020-08-23T09:43:13.606Z</time>
      </trkpt>
      <trkpt lat="40.20445" lon="-6.71621">
        <ele>522.62664794922</ele>
        <time>2020-08-23T09:43:16.371Z</time>
      </trkpt>
      <trkpt lat="40.20497905875" lon="-6.71598040847">
        <ele>522.86853027344</ele>
        <time>2020-08-23T09:43:19.155Z</time>
      </trkpt>
    </trkseg>
  </trk>
</gpx>
